<?xml version="1.0" encoding="UTF-8" standalone="no" ?>
<gpx xmlns="http://www.topografix.com/GPX/1/1" xmlns:xsi="http://www.w3.org/2001/XMLSchema-instance" xsi:schemaLocation="http://www.topografix.com/GPX/1/1 http://www.topografix.com/GPX/1/1/gpx.xsd" version="1.1" creator="VisuGPX - https://www.visugpx.com">
  <metadata>
    <name>lion d\'Angers</name>
    <desc><![CDATA[JOLI PARCOUR LE LONG DE LA MAYENNE JUSQU\'AU CHAMP DE COURSE LUC BRIAND ET LE RETOUR SUR DES CHEMINS DU HAUT ANJOU COOL
A FAIRE ]]></desc>
  </metadata>
  <trk>
    <name><![CDATA[09-NOV-14 12:05:31]]></name>
    <trkseg>
      <trkpt lat="47.53879" lon="-0.61969">
        <ele>46.28</ele>
        <time>2014-11-09T07:53:11Z</time>
      </trkpt>
      <trkpt lat="47.53879" lon="-0.61969">
        <ele>57.82</ele>
        <time>2014-11-09T07:53:13Z</time>
      </trkpt>
      <trkpt lat="47.53879" lon="-0.61969">
        <ele>57.82</ele>
        <time>2014-11-09T07:53:14Z</time>
      </trkpt>
      <trkpt lat="47.53878" lon="-0.61972">
        <ele>56.86</ele>
        <time>2014-11-09T07:53:26Z</time>
      </trkpt>
      <trkpt lat="47.53876" lon="-0.61974">
        <ele>57.82</ele>
        <time>2014-11-09T07:53:58Z</time>
      </trkpt>
      <trkpt lat="47.53878" lon="-0.61971">
        <ele>57.34</ele>
        <time>2014-11-09T07:54:31Z</time>
      </trkpt>
      <trkpt lat="47.53878" lon="-0.61973">
        <ele>57.34</ele>
        <time>2014-11-09T07:54:44Z</time>
      </trkpt>
      <trkpt lat="47.53867" lon="-0.62011">
        <ele>56.86</ele>
        <time>2014-11-09T07:54:56Z</time>
      </trkpt>
      <trkpt lat="47.53876" lon="-0.6205">
        <ele>56.86</ele>
        <time>2014-11-09T07:55:07Z</time>
      </trkpt>
      <trkpt lat="47.53874" lon="-0.62069">
        <ele>55.89</ele>
        <time>2014-11-09T07:55:16Z</time>
      </trkpt>
      <trkpt lat="47.53874" lon="-0.62068">
        <ele>55.89</ele>
        <time>2014-11-09T07:55:41Z</time>
      </trkpt>
      <trkpt lat="47.53869" lon="-0.62076">
        <ele>55.89</ele>
        <time>2014-11-09T07:56:12Z</time>
      </trkpt>
      <trkpt lat="47.53868" lon="-0.62076">
        <ele>55.89</ele>
        <time>2014-11-09T07:56:13Z</time>
      </trkpt>
      <trkpt lat="47.5386" lon="-0.62086">
        <ele>56.37</ele>
        <time>2014-11-09T07:56:20Z</time>
      </trkpt>
      <trkpt lat="47.53839" lon="-0.62109">
        <ele>56.37</ele>
        <time>2014-11-09T07:56:32Z</time>
      </trkpt>
      <trkpt lat="47.53814" lon="-0.6212">
        <ele>57.34</ele>
        <time>2014-11-09T07:56:46Z</time>
      </trkpt>
      <trkpt lat="47.53811" lon="-0.62121">
        <ele>57.82</ele>
        <time>2014-11-09T07:56:48Z</time>
      </trkpt>
      <trkpt lat="47.53803" lon="-0.62133">
        <ele>58.3</ele>
        <time>2014-11-09T07:56:53Z</time>
      </trkpt>
      <trkpt lat="47.53789" lon="-0.62162">
        <ele>57.82</ele>
        <time>2014-11-09T07:57:02Z</time>
      </trkpt>
      <trkpt lat="47.53808" lon="-0.62186">
        <ele>55.89</ele>
        <time>2014-11-09T07:57:10Z</time>
      </trkpt>
      <trkpt lat="47.53815" lon="-0.62186">
        <ele>55.41</ele>
        <time>2014-11-09T07:57:12Z</time>
      </trkpt>
      <trkpt lat="47.53832" lon="-0.62178">
        <ele>54.93</ele>
        <time>2014-11-09T07:57:16Z</time>
      </trkpt>
      <trkpt lat="47.53896" lon="-0.62113">
        <ele>53.49</ele>
        <time>2014-11-09T07:57:32Z</time>
      </trkpt>
      <trkpt lat="47.53947" lon="-0.62076">
        <ele>52.53</ele>
        <time>2014-11-09T07:57:47Z</time>
      </trkpt>
      <trkpt lat="47.53965" lon="-0.62072">
        <ele>52.53</ele>
        <time>2014-11-09T07:57:52Z</time>
      </trkpt>
      <trkpt lat="47.53988" lon="-0.6207">
        <ele>51.09</ele>
        <time>2014-11-09T07:57:57Z</time>
      </trkpt>
      <trkpt lat="47.53999" lon="-0.62072">
        <ele>50.61</ele>
        <time>2014-11-09T07:57:59Z</time>
      </trkpt>
      <trkpt lat="47.54024" lon="-0.62106">
        <ele>47.24</ele>
        <time>2014-11-09T07:58:04Z</time>
      </trkpt>
      <trkpt lat="47.54064" lon="-0.62193">
        <ele>44.84</ele>
        <time>2014-11-09T07:58:13Z</time>
      </trkpt>
      <trkpt lat="47.54091" lon="-0.62218">
        <ele>44.36</ele>
        <time>2014-11-09T07:58:18Z</time>
      </trkpt>
      <trkpt lat="47.54117" lon="-0.62228">
        <ele>42.44</ele>
        <time>2014-11-09T07:58:22Z</time>
      </trkpt>
      <trkpt lat="47.54175" lon="-0.62249">
        <ele>39.07</ele>
        <time>2014-11-09T07:58:29Z</time>
      </trkpt>
      <trkpt lat="47.54244" lon="-0.62287">
        <ele>36.19</ele>
        <time>2014-11-09T07:58:38Z</time>
      </trkpt>
      <trkpt lat="47.54325" lon="-0.62298">
        <ele>34.74</ele>
        <time>2014-11-09T07:58:50Z</time>
      </trkpt>
      <trkpt lat="47.5434" lon="-0.62299">
        <ele>34.26</ele>
        <time>2014-11-09T07:58:53Z</time>
      </trkpt>
      <trkpt lat="47.54356" lon="-0.62276">
        <ele>33.3</ele>
        <time>2014-11-09T07:58:58Z</time>
      </trkpt>
      <trkpt lat="47.54356" lon="-0.62156">
        <ele>32.34</ele>
        <time>2014-11-09T07:59:14Z</time>
      </trkpt>
      <trkpt lat="47.54362" lon="-0.62045">
        <ele>31.38</ele>
        <time>2014-11-09T07:59:27Z</time>
      </trkpt>
      <trkpt lat="47.54377" lon="-0.61891">
        <ele>26.09</ele>
        <time>2014-11-09T07:59:44Z</time>
      </trkpt>
      <trkpt lat="47.54381" lon="-0.61859">
        <ele>30.42</ele>
        <time>2014-11-09T07:59:48Z</time>
      </trkpt>
      <trkpt lat="47.54404" lon="-0.61845">
        <ele>29.94</ele>
        <time>2014-11-09T07:59:54Z</time>
      </trkpt>
      <trkpt lat="47.5449" lon="-0.6192">
        <ele>28.98</ele>
        <time>2014-11-09T08:00:12Z</time>
      </trkpt>
      <trkpt lat="47.54495" lon="-0.61924">
        <ele>20.81</ele>
        <time>2014-11-09T08:00:13Z</time>
      </trkpt>
      <trkpt lat="47.545" lon="-0.61928">
        <ele>31.38</ele>
        <time>2014-11-09T08:00:14Z</time>
      </trkpt>
      <trkpt lat="47.54517" lon="-0.61939">
        <ele>29.94</ele>
        <time>2014-11-09T08:00:17Z</time>
      </trkpt>
      <trkpt lat="47.54604" lon="-0.62002">
        <ele>30.9</ele>
        <time>2014-11-09T08:00:35Z</time>
      </trkpt>
      <trkpt lat="47.54696" lon="-0.62063">
        <ele>31.38</ele>
        <time>2014-11-09T08:00:54Z</time>
      </trkpt>
      <trkpt lat="47.54786" lon="-0.62117">
        <ele>31.38</ele>
        <time>2014-11-09T08:01:12Z</time>
      </trkpt>
      <trkpt lat="47.54865" lon="-0.62181">
        <ele>31.86</ele>
        <time>2014-11-09T08:01:29Z</time>
      </trkpt>
      <trkpt lat="47.5489" lon="-0.62208">
        <ele>31.86</ele>
        <time>2014-11-09T08:01:35Z</time>
      </trkpt>
      <trkpt lat="47.54939" lon="-0.62285">
        <ele>32.82</ele>
        <time>2014-11-09T08:01:49Z</time>
      </trkpt>
      <trkpt lat="47.55019" lon="-0.62336">
        <ele>32.82</ele>
        <time>2014-11-09T08:02:06Z</time>
      </trkpt>
      <trkpt lat="47.55023" lon="-0.62339">
        <ele>32.82</ele>
        <time>2014-11-09T08:02:07Z</time>
      </trkpt>
      <trkpt lat="47.55125" lon="-0.62379">
        <ele>32.82</ele>
        <time>2014-11-09T08:02:27Z</time>
      </trkpt>
      <trkpt lat="47.55197" lon="-0.62417">
        <ele>33.78</ele>
        <time>2014-11-09T08:02:42Z</time>
      </trkpt>
      <trkpt lat="47.55247" lon="-0.62444">
        <ele>33.78</ele>
        <time>2014-11-09T08:02:52Z</time>
      </trkpt>
      <trkpt lat="47.55352" lon="-0.62462">
        <ele>32.34</ele>
        <time>2014-11-09T08:03:11Z</time>
      </trkpt>
      <trkpt lat="47.55429" lon="-0.62508">
        <ele>33.3</ele>
        <time>2014-11-09T08:03:26Z</time>
      </trkpt>
      <trkpt lat="47.55538" lon="-0.6252">
        <ele>33.78</ele>
        <time>2014-11-09T08:03:47Z</time>
      </trkpt>
      <trkpt lat="47.55554" lon="-0.62519">
        <ele>34.26</ele>
        <time>2014-11-09T08:03:50Z</time>
      </trkpt>
      <trkpt lat="47.55631" lon="-0.62551">
        <ele>34.74</ele>
        <time>2014-11-09T08:04:05Z</time>
      </trkpt>
      <trkpt lat="47.55733" lon="-0.62595">
        <ele>36.19</ele>
        <time>2014-11-09T08:04:26Z</time>
      </trkpt>
      <trkpt lat="47.55818" lon="-0.62645">
        <ele>38.11</ele>
        <time>2014-11-09T08:04:44Z</time>
      </trkpt>
      <trkpt lat="47.55896" lon="-0.62701">
        <ele>38.11</ele>
        <time>2014-11-09T08:05:00Z</time>
      </trkpt>
      <trkpt lat="47.55972" lon="-0.62755">
        <ele>39.07</ele>
        <time>2014-11-09T08:05:17Z</time>
      </trkpt>
      <trkpt lat="47.56041" lon="-0.62803">
        <ele>39.07</ele>
        <time>2014-11-09T08:05:32Z</time>
      </trkpt>
      <trkpt lat="47.56049" lon="-0.62832">
        <ele>38.59</ele>
        <time>2014-11-09T08:05:37Z</time>
      </trkpt>
      <trkpt lat="47.56041" lon="-0.62944">
        <ele>39.55</ele>
        <time>2014-11-09T08:05:56Z</time>
      </trkpt>
      <trkpt lat="47.56038" lon="-0.63075">
        <ele>40.51</ele>
        <time>2014-11-09T08:06:17Z</time>
      </trkpt>
      <trkpt lat="47.56037" lon="-0.63127">
        <ele>40.51</ele>
        <time>2014-11-09T08:06:25Z</time>
      </trkpt>
      <trkpt lat="47.56032" lon="-0.63187">
        <ele>40.99</ele>
        <time>2014-11-09T08:06:35Z</time>
      </trkpt>
      <trkpt lat="47.56028" lon="-0.63321">
        <ele>41.47</ele>
        <time>2014-11-09T08:06:56Z</time>
      </trkpt>
      <trkpt lat="47.56025" lon="-0.63408">
        <ele>41.95</ele>
        <time>2014-11-09T08:07:10Z</time>
      </trkpt>
      <trkpt lat="47.56011" lon="-0.63412">
        <ele>40.99</ele>
        <time>2014-11-09T08:07:15Z</time>
      </trkpt>
      <trkpt lat="47.5595" lon="-0.63351">
        <ele>40.99</ele>
        <time>2014-11-09T08:07:33Z</time>
      </trkpt>
      <trkpt lat="47.55921" lon="-0.63334">
        <ele>40.99</ele>
        <time>2014-11-09T08:07:41Z</time>
      </trkpt>
      <trkpt lat="47.55907" lon="-0.6333">
        <ele>41.47</ele>
        <time>2014-11-09T08:07:44Z</time>
      </trkpt>
      <trkpt lat="47.55881" lon="-0.63343">
        <ele>40.99</ele>
        <time>2014-11-09T08:07:50Z</time>
      </trkpt>
      <trkpt lat="47.55828" lon="-0.6336">
        <ele>40.03</ele>
        <time>2014-11-09T08:08:03Z</time>
      </trkpt>
      <trkpt lat="47.55789" lon="-0.63364">
        <ele>40.51</ele>
        <time>2014-11-09T08:08:12Z</time>
      </trkpt>
      <trkpt lat="47.55715" lon="-0.63394">
        <ele>39.55</ele>
        <time>2014-11-09T08:08:30Z</time>
      </trkpt>
      <trkpt lat="47.55675" lon="-0.63406">
        <ele>39.07</ele>
        <time>2014-11-09T08:08:39Z</time>
      </trkpt>
      <trkpt lat="47.55603" lon="-0.63399">
        <ele>37.15</ele>
        <time>2014-11-09T08:08:56Z</time>
      </trkpt>
      <trkpt lat="47.55591" lon="-0.63395">
        <ele>37.63</ele>
        <time>2014-11-09T08:09:00Z</time>
      </trkpt>
      <trkpt lat="47.55589" lon="-0.63396">
        <ele>37.15</ele>
        <time>2014-11-09T08:09:02Z</time>
      </trkpt>
      <trkpt lat="47.55574" lon="-0.63407">
        <ele>38.11</ele>
        <time>2014-11-09T08:09:11Z</time>
      </trkpt>
      <trkpt lat="47.55545" lon="-0.63447">
        <ele>37.15</ele>
        <time>2014-11-09T08:09:23Z</time>
      </trkpt>
      <trkpt lat="47.55509" lon="-0.63497">
        <ele>37.63</ele>
        <time>2014-11-09T08:09:37Z</time>
      </trkpt>
      <trkpt lat="47.55492" lon="-0.63544">
        <ele>37.15</ele>
        <time>2014-11-09T08:09:48Z</time>
      </trkpt>
      <trkpt lat="47.55478" lon="-0.63548">
        <ele>37.15</ele>
        <time>2014-11-09T08:09:53Z</time>
      </trkpt>
      <trkpt lat="47.55444" lon="-0.63525">
        <ele>36.67</ele>
        <time>2014-11-09T08:10:06Z</time>
      </trkpt>
      <trkpt lat="47.55443" lon="-0.63523">
        <ele>36.67</ele>
        <time>2014-11-09T08:10:08Z</time>
      </trkpt>
      <trkpt lat="47.55414" lon="-0.63506">
        <ele>37.63</ele>
        <time>2014-11-09T08:10:20Z</time>
      </trkpt>
      <trkpt lat="47.55394" lon="-0.63465">
        <ele>38.59</ele>
        <time>2014-11-09T08:10:32Z</time>
      </trkpt>
      <trkpt lat="47.55356" lon="-0.63437">
        <ele>40.03</ele>
        <time>2014-11-09T08:10:45Z</time>
      </trkpt>
      <trkpt lat="47.55303" lon="-0.63413">
        <ele>41.95</ele>
        <time>2014-11-09T08:11:01Z</time>
      </trkpt>
      <trkpt lat="47.55244" lon="-0.63397">
        <ele>41.47</ele>
        <time>2014-11-09T08:11:16Z</time>
      </trkpt>
      <trkpt lat="47.55223" lon="-0.63409">
        <ele>42.44</ele>
        <time>2014-11-09T08:11:22Z</time>
      </trkpt>
      <trkpt lat="47.55197" lon="-0.63483">
        <ele>43.4</ele>
        <time>2014-11-09T08:11:37Z</time>
      </trkpt>
      <trkpt lat="47.55178" lon="-0.6354">
        <ele>44.36</ele>
        <time>2014-11-09T08:11:48Z</time>
      </trkpt>
      <trkpt lat="47.55159" lon="-0.63608">
        <ele>45.8</ele>
        <time>2014-11-09T08:12:01Z</time>
      </trkpt>
      <trkpt lat="47.55134" lon="-0.63669">
        <ele>47.24</ele>
        <time>2014-11-09T08:12:14Z</time>
      </trkpt>
      <trkpt lat="47.55097" lon="-0.63718">
        <ele>48.2</ele>
        <time>2014-11-09T08:12:27Z</time>
      </trkpt>
      <trkpt lat="47.55074" lon="-0.63747">
        <ele>48.2</ele>
        <time>2014-11-09T08:12:34Z</time>
      </trkpt>
      <trkpt lat="47.55035" lon="-0.63836">
        <ele>49.16</ele>
        <time>2014-11-09T08:12:51Z</time>
      </trkpt>
      <trkpt lat="47.55015" lon="-0.63933">
        <ele>50.13</ele>
        <time>2014-11-09T08:13:07Z</time>
      </trkpt>
      <trkpt lat="47.55015" lon="-0.63945">
        <ele>50.61</ele>
        <time>2014-11-09T08:13:09Z</time>
      </trkpt>
      <trkpt lat="47.55021" lon="-0.63981">
        <ele>51.09</ele>
        <time>2014-11-09T08:13:16Z</time>
      </trkpt>
      <trkpt lat="47.54991" lon="-0.64068">
        <ele>50.13</ele>
        <time>2014-11-09T08:13:32Z</time>
      </trkpt>
      <trkpt lat="47.54979" lon="-0.6416">
        <ele>50.13</ele>
        <time>2014-11-09T08:13:46Z</time>
      </trkpt>
      <trkpt lat="47.54968" lon="-0.64222">
        <ele>50.61</ele>
        <time>2014-11-09T08:13:56Z</time>
      </trkpt>
      <trkpt lat="47.54949" lon="-0.64314">
        <ele>52.05</ele>
        <time>2014-11-09T08:14:11Z</time>
      </trkpt>
      <trkpt lat="47.54917" lon="-0.64399">
        <ele>52.53</ele>
        <time>2014-11-09T08:14:27Z</time>
      </trkpt>
      <trkpt lat="47.54905" lon="-0.64429">
        <ele>53.49</ele>
        <time>2014-11-09T08:14:33Z</time>
      </trkpt>
      <trkpt lat="47.54917" lon="-0.64456">
        <ele>53.97</ele>
        <time>2014-11-09T08:14:39Z</time>
      </trkpt>
      <trkpt lat="47.54976" lon="-0.64521">
        <ele>54.93</ele>
        <time>2014-11-09T08:14:57Z</time>
      </trkpt>
      <trkpt lat="47.55023" lon="-0.64563">
        <ele>54.93</ele>
        <time>2014-11-09T08:15:10Z</time>
      </trkpt>
      <trkpt lat="47.55071" lon="-0.64595">
        <ele>51.57</ele>
        <time>2014-11-09T08:15:21Z</time>
      </trkpt>
      <trkpt lat="47.55109" lon="-0.64624">
        <ele>48.68</ele>
        <time>2014-11-09T08:15:27Z</time>
      </trkpt>
      <trkpt lat="47.55124" lon="-0.64635">
        <ele>47.24</ele>
        <time>2014-11-09T08:15:29Z</time>
      </trkpt>
      <trkpt lat="47.5517" lon="-0.6465">
        <ele>45.32</ele>
        <time>2014-11-09T08:15:36Z</time>
      </trkpt>
      <trkpt lat="47.55185" lon="-0.64669">
        <ele>46.28</ele>
        <time>2014-11-09T08:15:39Z</time>
      </trkpt>
      <trkpt lat="47.55226" lon="-0.64714">
        <ele>50.13</ele>
        <time>2014-11-09T08:15:47Z</time>
      </trkpt>
      <trkpt lat="47.5528" lon="-0.64776">
        <ele>53.01</ele>
        <time>2014-11-09T08:16:01Z</time>
      </trkpt>
      <trkpt lat="47.55316" lon="-0.64822">
        <ele>54.45</ele>
        <time>2014-11-09T08:16:16Z</time>
      </trkpt>
      <trkpt lat="47.55347" lon="-0.64865">
        <ele>55.89</ele>
        <time>2014-11-09T08:16:30Z</time>
      </trkpt>
      <trkpt lat="47.55385" lon="-0.64929">
        <ele>58.3</ele>
        <time>2014-11-09T08:16:47Z</time>
      </trkpt>
      <trkpt lat="47.55432" lon="-0.64996">
        <ele>60.22</ele>
        <time>2014-11-09T08:17:04Z</time>
      </trkpt>
      <trkpt lat="47.55482" lon="-0.65077">
        <ele>62.62</ele>
        <time>2014-11-09T08:17:24Z</time>
      </trkpt>
      <trkpt lat="47.55502" lon="-0.65111">
        <ele>63.1</ele>
        <time>2014-11-09T08:17:32Z</time>
      </trkpt>
      <trkpt lat="47.55515" lon="-0.65107">
        <ele>63.58</ele>
        <time>2014-11-09T08:17:36Z</time>
      </trkpt>
      <trkpt lat="47.55562" lon="-0.65053">
        <ele>66.47</ele>
        <time>2014-11-09T08:17:53Z</time>
      </trkpt>
      <trkpt lat="47.55576" lon="-0.65014">
        <ele>65.99</ele>
        <time>2014-11-09T08:18:01Z</time>
      </trkpt>
      <trkpt lat="47.55622" lon="-0.64962">
        <ele>65.99</ele>
        <time>2014-11-09T08:18:15Z</time>
      </trkpt>
      <trkpt lat="47.55644" lon="-0.64937">
        <ele>65.51</ele>
        <time>2014-11-09T08:18:21Z</time>
      </trkpt>
      <trkpt lat="47.55671" lon="-0.64893">
        <ele>65.51</ele>
        <time>2014-11-09T08:18:29Z</time>
      </trkpt>
      <trkpt lat="47.55714" lon="-0.64864">
        <ele>65.03</ele>
        <time>2014-11-09T08:18:38Z</time>
      </trkpt>
      <trkpt lat="47.5574" lon="-0.64844">
        <ele>64.55</ele>
        <time>2014-11-09T08:18:44Z</time>
      </trkpt>
      <trkpt lat="47.55762" lon="-0.64852">
        <ele>64.55</ele>
        <time>2014-11-09T08:18:50Z</time>
      </trkpt>
      <trkpt lat="47.55793" lon="-0.64881">
        <ele>67.91</ele>
        <time>2014-11-09T08:19:01Z</time>
      </trkpt>
      <trkpt lat="47.55822" lon="-0.64907">
        <ele>70.31</ele>
        <time>2014-11-09T08:19:12Z</time>
      </trkpt>
      <trkpt lat="47.55851" lon="-0.64947">
        <ele>73.2</ele>
        <time>2014-11-09T08:19:26Z</time>
      </trkpt>
      <trkpt lat="47.55867" lon="-0.64974">
        <ele>74.16</ele>
        <time>2014-11-09T08:19:34Z</time>
      </trkpt>
      <trkpt lat="47.55877" lon="-0.64976">
        <ele>76.56</ele>
        <time>2014-11-09T08:19:40Z</time>
      </trkpt>
      <trkpt lat="47.55881" lon="-0.64962">
        <ele>76.56</ele>
        <time>2014-11-09T08:19:47Z</time>
      </trkpt>
      <trkpt lat="47.55899" lon="-0.64916">
        <ele>76.56</ele>
        <time>2014-11-09T08:20:01Z</time>
      </trkpt>
      <trkpt lat="47.55933" lon="-0.64864">
        <ele>76.56</ele>
        <time>2014-11-09T08:20:15Z</time>
      </trkpt>
      <trkpt lat="47.55945" lon="-0.64846">
        <ele>76.08</ele>
        <time>2014-11-09T08:20:19Z</time>
      </trkpt>
      <trkpt lat="47.55956" lon="-0.64827">
        <ele>76.08</ele>
        <time>2014-11-09T08:20:23Z</time>
      </trkpt>
      <trkpt lat="47.55966" lon="-0.64813">
        <ele>75.6</ele>
        <time>2014-11-09T08:20:26Z</time>
      </trkpt>
      <trkpt lat="47.55995" lon="-0.64766">
        <ele>72.72</ele>
        <time>2014-11-09T08:20:33Z</time>
      </trkpt>
      <trkpt lat="47.5599" lon="-0.64705">
        <ele>68.87</ele>
        <time>2014-11-09T08:20:38Z</time>
      </trkpt>
      <trkpt lat="47.55983" lon="-0.64693">
        <ele>67.91</ele>
        <time>2014-11-09T08:20:39Z</time>
      </trkpt>
      <trkpt lat="47.55936" lon="-0.64627">
        <ele>64.07</ele>
        <time>2014-11-09T08:20:45Z</time>
      </trkpt>
      <trkpt lat="47.55929" lon="-0.64616">
        <ele>64.07</ele>
        <time>2014-11-09T08:20:46Z</time>
      </trkpt>
      <trkpt lat="47.55923" lon="-0.64604">
        <ele>63.1</ele>
        <time>2014-11-09T08:20:47Z</time>
      </trkpt>
      <trkpt lat="47.55914" lon="-0.64577">
        <ele>62.14</ele>
        <time>2014-11-09T08:20:49Z</time>
      </trkpt>
      <trkpt lat="47.55909" lon="-0.64536">
        <ele>61.18</ele>
        <time>2014-11-09T08:20:52Z</time>
      </trkpt>
      <trkpt lat="47.55905" lon="-0.64482">
        <ele>60.22</ele>
        <time>2014-11-09T08:20:56Z</time>
      </trkpt>
      <trkpt lat="47.55905" lon="-0.64395">
        <ele>58.78</ele>
        <time>2014-11-09T08:21:03Z</time>
      </trkpt>
      <trkpt lat="47.55904" lon="-0.64353">
        <ele>58.3</ele>
        <time>2014-11-09T08:21:07Z</time>
      </trkpt>
      <trkpt lat="47.55902" lon="-0.64323">
        <ele>56.86</ele>
        <time>2014-11-09T08:21:14Z</time>
      </trkpt>
      <trkpt lat="47.55929" lon="-0.6434">
        <ele>56.86</ele>
        <time>2014-11-09T08:21:25Z</time>
      </trkpt>
      <trkpt lat="47.55994" lon="-0.64394">
        <ele>58.3</ele>
        <time>2014-11-09T08:21:41Z</time>
      </trkpt>
      <trkpt lat="47.5604" lon="-0.64443">
        <ele>57.82</ele>
        <time>2014-11-09T08:21:52Z</time>
      </trkpt>
      <trkpt lat="47.56085" lon="-0.64475">
        <ele>58.78</ele>
        <time>2014-11-09T08:22:06Z</time>
      </trkpt>
      <trkpt lat="47.56125" lon="-0.645">
        <ele>61.66</ele>
        <time>2014-11-09T08:22:21Z</time>
      </trkpt>
      <trkpt lat="47.56144" lon="-0.64514">
        <ele>64.55</ele>
        <time>2014-11-09T08:22:30Z</time>
      </trkpt>
      <trkpt lat="47.56163" lon="-0.64536">
        <ele>66.95</ele>
        <time>2014-11-09T08:22:42Z</time>
      </trkpt>
      <trkpt lat="47.56178" lon="-0.64572">
        <ele>70.31</ele>
        <time>2014-11-09T08:22:55Z</time>
      </trkpt>
      <trkpt lat="47.56206" lon="-0.64607">
        <ele>73.2</ele>
        <time>2014-11-09T08:23:11Z</time>
      </trkpt>
      <trkpt lat="47.56227" lon="-0.64627">
        <ele>76.56</ele>
        <time>2014-11-09T08:23:24Z</time>
      </trkpt>
      <trkpt lat="47.56256" lon="-0.6467">
        <ele>78.48</ele>
        <time>2014-11-09T08:23:41Z</time>
      </trkpt>
      <trkpt lat="47.56284" lon="-0.64714">
        <ele>80.41</ele>
        <time>2014-11-09T08:23:58Z</time>
      </trkpt>
      <trkpt lat="47.56304" lon="-0.64742">
        <ele>81.37</ele>
        <time>2014-11-09T08:24:10Z</time>
      </trkpt>
      <trkpt lat="47.56288" lon="-0.64772">
        <ele>82.33</ele>
        <time>2014-11-09T08:24:23Z</time>
      </trkpt>
      <trkpt lat="47.56265" lon="-0.64814">
        <ele>82.81</ele>
        <time>2014-11-09T08:24:39Z</time>
      </trkpt>
      <trkpt lat="47.56232" lon="-0.64861">
        <ele>82.33</ele>
        <time>2014-11-09T08:24:53Z</time>
      </trkpt>
      <trkpt lat="47.56186" lon="-0.64907">
        <ele>81.37</ele>
        <time>2014-11-09T08:25:07Z</time>
      </trkpt>
      <trkpt lat="47.56131" lon="-0.64965">
        <ele>81.37</ele>
        <time>2014-11-09T08:25:24Z</time>
      </trkpt>
      <trkpt lat="47.56074" lon="-0.65022">
        <ele>81.85</ele>
        <time>2014-11-09T08:25:41Z</time>
      </trkpt>
      <trkpt lat="47.56024" lon="-0.65098">
        <ele>83.77</ele>
        <time>2014-11-09T08:25:57Z</time>
      </trkpt>
      <trkpt lat="47.55983" lon="-0.65163">
        <ele>84.25</ele>
        <time>2014-11-09T08:26:10Z</time>
      </trkpt>
      <trkpt lat="47.55977" lon="-0.65173">
        <ele>83.77</ele>
        <time>2014-11-09T08:26:12Z</time>
      </trkpt>
      <trkpt lat="47.55967" lon="-0.65219">
        <ele>84.73</ele>
        <time>2014-11-09T08:26:19Z</time>
      </trkpt>
      <trkpt lat="47.55975" lon="-0.65334">
        <ele>86.18</ele>
        <time>2014-11-09T08:26:36Z</time>
      </trkpt>
      <trkpt lat="47.55983" lon="-0.65481">
        <ele>86.66</ele>
        <time>2014-11-09T08:26:57Z</time>
      </trkpt>
      <trkpt lat="47.55978" lon="-0.65614">
        <ele>85.21</ele>
        <time>2014-11-09T08:27:15Z</time>
      </trkpt>
      <trkpt lat="47.55982" lon="-0.65723">
        <ele>84.73</ele>
        <time>2014-11-09T08:27:29Z</time>
      </trkpt>
      <trkpt lat="47.55983" lon="-0.65768">
        <ele>84.25</ele>
        <time>2014-11-09T08:27:35Z</time>
      </trkpt>
      <trkpt lat="47.56003" lon="-0.65787">
        <ele>83.77</ele>
        <time>2014-11-09T08:27:41Z</time>
      </trkpt>
      <trkpt lat="47.5608" lon="-0.65778">
        <ele>82.33</ele>
        <time>2014-11-09T08:27:57Z</time>
      </trkpt>
      <trkpt lat="47.56116" lon="-0.65778">
        <ele>80.89</ele>
        <time>2014-11-09T08:28:03Z</time>
      </trkpt>
      <trkpt lat="47.56142" lon="-0.65781">
        <ele>78.97</ele>
        <time>2014-11-09T08:28:07Z</time>
      </trkpt>
      <trkpt lat="47.56167" lon="-0.65769">
        <ele>78.48</ele>
        <time>2014-11-09T08:28:11Z</time>
      </trkpt>
      <trkpt lat="47.56237" lon="-0.65706">
        <ele>76.08</ele>
        <time>2014-11-09T08:28:25Z</time>
      </trkpt>
      <trkpt lat="47.56291" lon="-0.65647">
        <ele>74.16</ele>
        <time>2014-11-09T08:28:38Z</time>
      </trkpt>
      <trkpt lat="47.56366" lon="-0.65569">
        <ele>73.68</ele>
        <time>2014-11-09T08:28:57Z</time>
      </trkpt>
      <trkpt lat="47.56382" lon="-0.65546">
        <ele>73.68</ele>
        <time>2014-11-09T08:29:02Z</time>
      </trkpt>
      <trkpt lat="47.56396" lon="-0.65517">
        <ele>74.16</ele>
        <time>2014-11-09T08:29:08Z</time>
      </trkpt>
      <trkpt lat="47.56408" lon="-0.65515">
        <ele>74.64</ele>
        <time>2014-11-09T08:29:12Z</time>
      </trkpt>
      <trkpt lat="47.56446" lon="-0.65553">
        <ele>75.6</ele>
        <time>2014-11-09T08:29:24Z</time>
      </trkpt>
      <trkpt lat="47.5649" lon="-0.65592">
        <ele>77.52</ele>
        <time>2014-11-09T08:29:38Z</time>
      </trkpt>
      <trkpt lat="47.56531" lon="-0.65618">
        <ele>80.41</ele>
        <time>2014-11-09T08:29:52Z</time>
      </trkpt>
      <trkpt lat="47.56584" lon="-0.65621">
        <ele>80.41</ele>
        <time>2014-11-09T08:30:06Z</time>
      </trkpt>
      <trkpt lat="47.56605" lon="-0.65627">
        <ele>80.89</ele>
        <time>2014-11-09T08:30:11Z</time>
      </trkpt>
      <trkpt lat="47.56613" lon="-0.65629">
        <ele>80.41</ele>
        <time>2014-11-09T08:30:13Z</time>
      </trkpt>
      <trkpt lat="47.56649" lon="-0.6564">
        <ele>78.48</ele>
        <time>2014-11-09T08:30:20Z</time>
      </trkpt>
      <trkpt lat="47.5667" lon="-0.65641">
        <ele>76.56</ele>
        <time>2014-11-09T08:30:23Z</time>
      </trkpt>
      <trkpt lat="47.56712" lon="-0.65644">
        <ele>73.2</ele>
        <time>2014-11-09T08:30:28Z</time>
      </trkpt>
      <trkpt lat="47.56721" lon="-0.65645">
        <ele>73.2</ele>
        <time>2014-11-09T08:30:29Z</time>
      </trkpt>
      <trkpt lat="47.56759" lon="-0.65648">
        <ele>70.31</ele>
        <time>2014-11-09T08:30:34Z</time>
      </trkpt>
      <trkpt lat="47.56764" lon="-0.65648">
        <ele>69.83</ele>
        <time>2014-11-09T08:30:35Z</time>
      </trkpt>
      <trkpt lat="47.56757" lon="-0.65672">
        <ele>68.39</ele>
        <time>2014-11-09T08:30:43Z</time>
      </trkpt>
      <trkpt lat="47.56753" lon="-0.65679">
        <ele>69.35</ele>
        <time>2014-11-09T08:30:45Z</time>
      </trkpt>
      <trkpt lat="47.56719" lon="-0.65734">
        <ele>66.95</ele>
        <time>2014-11-09T08:30:58Z</time>
      </trkpt>
      <trkpt lat="47.56662" lon="-0.65872">
        <ele>64.07</ele>
        <time>2014-11-09T08:31:17Z</time>
      </trkpt>
      <trkpt lat="47.56602" lon="-0.65997">
        <ele>62.62</ele>
        <time>2014-11-09T08:31:34Z</time>
      </trkpt>
      <trkpt lat="47.56551" lon="-0.6613">
        <ele>61.18</ele>
        <time>2014-11-09T08:31:52Z</time>
      </trkpt>
      <trkpt lat="47.56523" lon="-0.66194">
        <ele>59.26</ele>
        <time>2014-11-09T08:32:00Z</time>
      </trkpt>
      <trkpt lat="47.56452" lon="-0.66256">
        <ele>55.41</ele>
        <time>2014-11-09T08:32:11Z</time>
      </trkpt>
      <trkpt lat="47.56404" lon="-0.66307">
        <ele>54.45</ele>
        <time>2014-11-09T08:32:19Z</time>
      </trkpt>
      <trkpt lat="47.56369" lon="-0.66432">
        <ele>53.49</ele>
        <time>2014-11-09T08:32:33Z</time>
      </trkpt>
      <trkpt lat="47.56355" lon="-0.6658">
        <ele>50.61</ele>
        <time>2014-11-09T08:32:48Z</time>
      </trkpt>
      <trkpt lat="47.56339" lon="-0.66729">
        <ele>49.16</ele>
        <time>2014-11-09T08:33:03Z</time>
      </trkpt>
      <trkpt lat="47.56322" lon="-0.66824">
        <ele>49.16</ele>
        <time>2014-11-09T08:33:15Z</time>
      </trkpt>
      <trkpt lat="47.56335" lon="-0.66887">
        <ele>48.68</ele>
        <time>2014-11-09T08:33:24Z</time>
      </trkpt>
      <trkpt lat="47.56348" lon="-0.66906">
        <ele>47.72</ele>
        <time>2014-11-09T08:33:27Z</time>
      </trkpt>
      <trkpt lat="47.56397" lon="-0.66986">
        <ele>45.8</ele>
        <time>2014-11-09T08:33:39Z</time>
      </trkpt>
      <trkpt lat="47.56403" lon="-0.66997">
        <ele>45.32</ele>
        <time>2014-11-09T08:33:41Z</time>
      </trkpt>
      <trkpt lat="47.56431" lon="-0.67078">
        <ele>48.68</ele>
        <time>2014-11-09T08:33:56Z</time>
      </trkpt>
      <trkpt lat="47.56452" lon="-0.67128">
        <ele>51.57</ele>
        <time>2014-11-09T08:34:08Z</time>
      </trkpt>
      <trkpt lat="47.56465" lon="-0.67156">
        <ele>53.97</ele>
        <time>2014-11-09T08:34:16Z</time>
      </trkpt>
      <trkpt lat="47.5648" lon="-0.67179">
        <ele>55.89</ele>
        <time>2014-11-09T08:34:25Z</time>
      </trkpt>
      <trkpt lat="47.56491" lon="-0.67172">
        <ele>56.37</ele>
        <time>2014-11-09T08:34:30Z</time>
      </trkpt>
      <trkpt lat="47.5652" lon="-0.67148">
        <ele>59.74</ele>
        <time>2014-11-09T08:34:45Z</time>
      </trkpt>
      <trkpt lat="47.56547" lon="-0.67125">
        <ele>63.1</ele>
        <time>2014-11-09T08:34:59Z</time>
      </trkpt>
      <trkpt lat="47.5657" lon="-0.67093">
        <ele>66.47</ele>
        <time>2014-11-09T08:35:14Z</time>
      </trkpt>
      <trkpt lat="47.56594" lon="-0.67067">
        <ele>68.39</ele>
        <time>2014-11-09T08:35:30Z</time>
      </trkpt>
      <trkpt lat="47.56622" lon="-0.67048">
        <ele>70.31</ele>
        <time>2014-11-09T08:35:45Z</time>
      </trkpt>
      <trkpt lat="47.56667" lon="-0.67031">
        <ele>70.31</ele>
        <time>2014-11-09T08:36:01Z</time>
      </trkpt>
      <trkpt lat="47.56707" lon="-0.6705">
        <ele>70.31</ele>
        <time>2014-11-09T08:36:13Z</time>
      </trkpt>
      <trkpt lat="47.56753" lon="-0.6709">
        <ele>70.31</ele>
        <time>2014-11-09T08:36:29Z</time>
      </trkpt>
      <trkpt lat="47.56798" lon="-0.67117">
        <ele>68.87</ele>
        <time>2014-11-09T08:36:41Z</time>
      </trkpt>
      <trkpt lat="47.56836" lon="-0.67144">
        <ele>68.39</ele>
        <time>2014-11-09T08:36:51Z</time>
      </trkpt>
      <trkpt lat="47.56849" lon="-0.67156">
        <ele>67.91</ele>
        <time>2014-11-09T08:36:55Z</time>
      </trkpt>
      <trkpt lat="47.56923" lon="-0.67194">
        <ele>68.39</ele>
        <time>2014-11-09T08:37:15Z</time>
      </trkpt>
      <trkpt lat="47.56967" lon="-0.67207">
        <ele>68.87</ele>
        <time>2014-11-09T08:37:28Z</time>
      </trkpt>
      <trkpt lat="47.56984" lon="-0.67205">
        <ele>69.83</ele>
        <time>2014-11-09T08:37:33Z</time>
      </trkpt>
      <trkpt lat="47.56986" lon="-0.67184">
        <ele>70.79</ele>
        <time>2014-11-09T08:37:38Z</time>
      </trkpt>
      <trkpt lat="47.56981" lon="-0.67121">
        <ele>70.79</ele>
        <time>2014-11-09T08:37:50Z</time>
      </trkpt>
      <trkpt lat="47.56985" lon="-0.67068">
        <ele>70.31</ele>
        <time>2014-11-09T08:37:59Z</time>
      </trkpt>
      <trkpt lat="47.56988" lon="-0.67006">
        <ele>69.35</ele>
        <time>2014-11-09T08:38:08Z</time>
      </trkpt>
      <trkpt lat="47.56989" lon="-0.66985">
        <ele>68.39</ele>
        <time>2014-11-09T08:38:11Z</time>
      </trkpt>
      <trkpt lat="47.5699" lon="-0.6697">
        <ele>67.91</ele>
        <time>2014-11-09T08:38:13Z</time>
      </trkpt>
      <trkpt lat="47.57021" lon="-0.66921">
        <ele>66.47</ele>
        <time>2014-11-09T08:38:21Z</time>
      </trkpt>
      <trkpt lat="47.57064" lon="-0.66879">
        <ele>67.91</ele>
        <time>2014-11-09T08:38:32Z</time>
      </trkpt>
      <trkpt lat="47.57105" lon="-0.66841">
        <ele>71.27</ele>
        <time>2014-11-09T08:38:45Z</time>
      </trkpt>
      <trkpt lat="47.57108" lon="-0.66836">
        <ele>71.27</ele>
        <time>2014-11-09T08:39:03Z</time>
      </trkpt>
      <trkpt lat="47.57109" lon="-0.66832">
        <ele>71.76</ele>
        <time>2014-11-09T08:39:14Z</time>
      </trkpt>
      <trkpt lat="47.57114" lon="-0.66832">
        <ele>72.24</ele>
        <time>2014-11-09T08:39:27Z</time>
      </trkpt>
      <trkpt lat="47.57115" lon="-0.66832">
        <ele>71.76</ele>
        <time>2014-11-09T08:39:31Z</time>
      </trkpt>
      <trkpt lat="47.57139" lon="-0.66806">
        <ele>73.68</ele>
        <time>2014-11-09T08:39:44Z</time>
      </trkpt>
      <trkpt lat="47.57177" lon="-0.66786">
        <ele>75.12</ele>
        <time>2014-11-09T08:39:56Z</time>
      </trkpt>
      <trkpt lat="47.57225" lon="-0.66764">
        <ele>78</ele>
        <time>2014-11-09T08:40:12Z</time>
      </trkpt>
      <trkpt lat="47.57269" lon="-0.66752">
        <ele>79.93</ele>
        <time>2014-11-09T08:40:29Z</time>
      </trkpt>
      <trkpt lat="47.57315" lon="-0.66747">
        <ele>81.37</ele>
        <time>2014-11-09T08:40:45Z</time>
      </trkpt>
      <trkpt lat="47.57359" lon="-0.66744">
        <ele>79.93</ele>
        <time>2014-11-09T08:40:59Z</time>
      </trkpt>
      <trkpt lat="47.57361" lon="-0.66743">
        <ele>79.93</ele>
        <time>2014-11-09T08:41:02Z</time>
      </trkpt>
      <trkpt lat="47.57354" lon="-0.66736">
        <ele>79.93</ele>
        <time>2014-11-09T08:41:10Z</time>
      </trkpt>
      <trkpt lat="47.57358" lon="-0.66741">
        <ele>79.93</ele>
        <time>2014-11-09T08:41:13Z</time>
      </trkpt>
      <trkpt lat="47.57391" lon="-0.6674">
        <ele>79.45</ele>
        <time>2014-11-09T08:41:24Z</time>
      </trkpt>
      <trkpt lat="47.57455" lon="-0.66704">
        <ele>78</ele>
        <time>2014-11-09T08:41:38Z</time>
      </trkpt>
      <trkpt lat="47.57527" lon="-0.66663">
        <ele>74.16</ele>
        <time>2014-11-09T08:41:50Z</time>
      </trkpt>
      <trkpt lat="47.57532" lon="-0.6666">
        <ele>73.68</ele>
        <time>2014-11-09T08:41:51Z</time>
      </trkpt>
      <trkpt lat="47.57548" lon="-0.66653">
        <ele>72.24</ele>
        <time>2014-11-09T08:41:54Z</time>
      </trkpt>
      <trkpt lat="47.57579" lon="-0.66627">
        <ele>68.87</ele>
        <time>2014-11-09T08:42:02Z</time>
      </trkpt>
      <trkpt lat="47.57622" lon="-0.66586">
        <ele>65.03</ele>
        <time>2014-11-09T08:42:13Z</time>
      </trkpt>
      <trkpt lat="47.57636" lon="-0.66574">
        <ele>64.07</ele>
        <time>2014-11-09T08:42:15Z</time>
      </trkpt>
      <trkpt lat="47.57674" lon="-0.66513">
        <ele>59.74</ele>
        <time>2014-11-09T08:42:21Z</time>
      </trkpt>
      <trkpt lat="47.57689" lon="-0.66481">
        <ele>56.86</ele>
        <time>2014-11-09T08:42:24Z</time>
      </trkpt>
      <trkpt lat="47.57702" lon="-0.66436">
        <ele>52.05</ele>
        <time>2014-11-09T08:42:30Z</time>
      </trkpt>
      <trkpt lat="47.57713" lon="-0.6643">
        <ele>52.05</ele>
        <time>2014-11-09T08:42:32Z</time>
      </trkpt>
      <trkpt lat="47.5775" lon="-0.6642">
        <ele>46.76</ele>
        <time>2014-11-09T08:42:37Z</time>
      </trkpt>
      <trkpt lat="47.57773" lon="-0.6641">
        <ele>43.4</ele>
        <time>2014-11-09T08:42:40Z</time>
      </trkpt>
      <trkpt lat="47.57798" lon="-0.66404">
        <ele>40.03</ele>
        <time>2014-11-09T08:42:43Z</time>
      </trkpt>
      <trkpt lat="47.57815" lon="-0.66404">
        <ele>38.11</ele>
        <time>2014-11-09T08:42:45Z</time>
      </trkpt>
      <trkpt lat="47.57846" lon="-0.66418">
        <ele>33.3</ele>
        <time>2014-11-09T08:42:49Z</time>
      </trkpt>
      <trkpt lat="47.57879" lon="-0.66441">
        <ele>31.38</ele>
        <time>2014-11-09T08:42:53Z</time>
      </trkpt>
      <trkpt lat="47.57902" lon="-0.66453">
        <ele>29.94</ele>
        <time>2014-11-09T08:42:56Z</time>
      </trkpt>
      <trkpt lat="47.57932" lon="-0.66482">
        <ele>29.46</ele>
        <time>2014-11-09T08:43:01Z</time>
      </trkpt>
      <trkpt lat="47.57965" lon="-0.66543">
        <ele>28.02</ele>
        <time>2014-11-09T08:43:09Z</time>
      </trkpt>
      <trkpt lat="47.5801" lon="-0.66599">
        <ele>26.09</ele>
        <time>2014-11-09T08:43:18Z</time>
      </trkpt>
      <trkpt lat="47.58047" lon="-0.6659">
        <ele>25.13</ele>
        <time>2014-11-09T08:43:25Z</time>
      </trkpt>
      <trkpt lat="47.58057" lon="-0.66573">
        <ele>25.61</ele>
        <time>2014-11-09T08:43:28Z</time>
      </trkpt>
      <trkpt lat="47.58073" lon="-0.66552">
        <ele>25.13</ele>
        <time>2014-11-09T08:43:32Z</time>
      </trkpt>
      <trkpt lat="47.58089" lon="-0.66534">
        <ele>24.17</ele>
        <time>2014-11-09T08:43:36Z</time>
      </trkpt>
      <trkpt lat="47.5813" lon="-0.66529">
        <ele>22.25</ele>
        <time>2014-11-09T08:43:44Z</time>
      </trkpt>
      <trkpt lat="47.58151" lon="-0.66549">
        <ele>23.21</ele>
        <time>2014-11-09T08:43:49Z</time>
      </trkpt>
      <trkpt lat="47.58227" lon="-0.6663">
        <ele>23.21</ele>
        <time>2014-11-09T08:44:07Z</time>
      </trkpt>
      <trkpt lat="47.58234" lon="-0.66639">
        <ele>22.73</ele>
        <time>2014-11-09T08:44:09Z</time>
      </trkpt>
      <trkpt lat="47.58312" lon="-0.66726">
        <ele>23.21</ele>
        <time>2014-11-09T08:44:28Z</time>
      </trkpt>
      <trkpt lat="47.5838" lon="-0.66787">
        <ele>23.21</ele>
        <time>2014-11-09T08:44:44Z</time>
      </trkpt>
      <trkpt lat="47.58413" lon="-0.66821">
        <ele>23.21</ele>
        <time>2014-11-09T08:44:53Z</time>
      </trkpt>
      <trkpt lat="47.58422" lon="-0.66828">
        <ele>22.73</ele>
        <time>2014-11-09T08:44:55Z</time>
      </trkpt>
      <trkpt lat="47.58439" lon="-0.6684">
        <ele>23.21</ele>
        <time>2014-11-09T08:44:59Z</time>
      </trkpt>
      <trkpt lat="47.58446" lon="-0.6685">
        <ele>23.21</ele>
        <time>2014-11-09T08:45:01Z</time>
      </trkpt>
      <trkpt lat="47.58457" lon="-0.66862">
        <ele>22.73</ele>
        <time>2014-11-09T08:45:04Z</time>
      </trkpt>
      <trkpt lat="47.5847" lon="-0.6687">
        <ele>22.73</ele>
        <time>2014-11-09T08:45:07Z</time>
      </trkpt>
      <trkpt lat="47.58551" lon="-0.66947">
        <ele>22.73</ele>
        <time>2014-11-09T08:45:27Z</time>
      </trkpt>
      <trkpt lat="47.58578" lon="-0.66977">
        <ele>23.21</ele>
        <time>2014-11-09T08:45:34Z</time>
      </trkpt>
      <trkpt lat="47.58611" lon="-0.67023">
        <ele>23.21</ele>
        <time>2014-11-09T08:45:44Z</time>
      </trkpt>
      <trkpt lat="47.58622" lon="-0.6705">
        <ele>23.21</ele>
        <time>2014-11-09T08:45:49Z</time>
      </trkpt>
      <trkpt lat="47.58644" lon="-0.67111">
        <ele>23.69</ele>
        <time>2014-11-09T08:45:59Z</time>
      </trkpt>
      <trkpt lat="47.58671" lon="-0.6716">
        <ele>23.21</ele>
        <time>2014-11-09T08:46:08Z</time>
      </trkpt>
      <trkpt lat="47.58739" lon="-0.67277">
        <ele>23.21</ele>
        <time>2014-11-09T08:46:31Z</time>
      </trkpt>
      <trkpt lat="47.58756" lon="-0.6731">
        <ele>23.21</ele>
        <time>2014-11-09T08:46:37Z</time>
      </trkpt>
      <trkpt lat="47.58778" lon="-0.67344">
        <ele>23.21</ele>
        <time>2014-11-09T08:46:44Z</time>
      </trkpt>
      <trkpt lat="47.58791" lon="-0.67372">
        <ele>22.73</ele>
        <time>2014-11-09T08:46:49Z</time>
      </trkpt>
      <trkpt lat="47.58798" lon="-0.67389">
        <ele>23.21</ele>
        <time>2014-11-09T08:46:52Z</time>
      </trkpt>
      <trkpt lat="47.58823" lon="-0.67452">
        <ele>23.21</ele>
        <time>2014-11-09T08:47:03Z</time>
      </trkpt>
      <trkpt lat="47.58837" lon="-0.6748">
        <ele>23.69</ele>
        <time>2014-11-09T08:47:08Z</time>
      </trkpt>
      <trkpt lat="47.58879" lon="-0.6756">
        <ele>22.73</ele>
        <time>2014-11-09T08:47:23Z</time>
      </trkpt>
      <trkpt lat="47.58902" lon="-0.6761">
        <ele>22.73</ele>
        <time>2014-11-09T08:47:32Z</time>
      </trkpt>
      <trkpt lat="47.58914" lon="-0.67628">
        <ele>23.21</ele>
        <time>2014-11-09T08:47:36Z</time>
      </trkpt>
      <trkpt lat="47.58933" lon="-0.67666">
        <ele>22.73</ele>
        <time>2014-11-09T08:47:43Z</time>
      </trkpt>
      <trkpt lat="47.58967" lon="-0.67738">
        <ele>23.21</ele>
        <time>2014-11-09T08:47:55Z</time>
      </trkpt>
      <trkpt lat="47.58982" lon="-0.67764">
        <ele>23.21</ele>
        <time>2014-11-09T08:48:00Z</time>
      </trkpt>
      <trkpt lat="47.58994" lon="-0.67794">
        <ele>23.21</ele>
        <time>2014-11-09T08:48:05Z</time>
      </trkpt>
      <trkpt lat="47.59007" lon="-0.67821">
        <ele>23.21</ele>
        <time>2014-11-09T08:48:10Z</time>
      </trkpt>
      <trkpt lat="47.59027" lon="-0.6787">
        <ele>24.17</ele>
        <time>2014-11-09T08:48:19Z</time>
      </trkpt>
      <trkpt lat="47.59039" lon="-0.67899">
        <ele>23.69</ele>
        <time>2014-11-09T08:48:24Z</time>
      </trkpt>
      <trkpt lat="47.59062" lon="-0.67961">
        <ele>24.17</ele>
        <time>2014-11-09T08:48:36Z</time>
      </trkpt>
      <trkpt lat="47.59082" lon="-0.67999">
        <ele>24.65</ele>
        <time>2014-11-09T08:48:44Z</time>
      </trkpt>
      <trkpt lat="47.59105" lon="-0.6808">
        <ele>24.65</ele>
        <time>2014-11-09T08:48:56Z</time>
      </trkpt>
      <trkpt lat="47.59122" lon="-0.68122">
        <ele>24.17</ele>
        <time>2014-11-09T08:49:03Z</time>
      </trkpt>
      <trkpt lat="47.59138" lon="-0.68135">
        <ele>24.65</ele>
        <time>2014-11-09T08:49:07Z</time>
      </trkpt>
      <trkpt lat="47.59149" lon="-0.68162">
        <ele>24.65</ele>
        <time>2014-11-09T08:49:11Z</time>
      </trkpt>
      <trkpt lat="47.59182" lon="-0.68256">
        <ele>23.69</ele>
        <time>2014-11-09T08:49:25Z</time>
      </trkpt>
      <trkpt lat="47.59192" lon="-0.68288">
        <ele>24.65</ele>
        <time>2014-11-09T08:49:31Z</time>
      </trkpt>
      <trkpt lat="47.59201" lon="-0.68336">
        <ele>24.65</ele>
        <time>2014-11-09T08:49:38Z</time>
      </trkpt>
      <trkpt lat="47.59205" lon="-0.68349">
        <ele>25.13</ele>
        <time>2014-11-09T08:49:40Z</time>
      </trkpt>
      <trkpt lat="47.59222" lon="-0.68408">
        <ele>24.65</ele>
        <time>2014-11-09T08:49:50Z</time>
      </trkpt>
      <trkpt lat="47.59262" lon="-0.6846">
        <ele>24.65</ele>
        <time>2014-11-09T08:50:02Z</time>
      </trkpt>
      <trkpt lat="47.59275" lon="-0.68475">
        <ele>25.13</ele>
        <time>2014-11-09T08:50:05Z</time>
      </trkpt>
      <trkpt lat="47.59294" lon="-0.68496">
        <ele>24.65</ele>
        <time>2014-11-09T08:50:09Z</time>
      </trkpt>
      <trkpt lat="47.59326" lon="-0.6855">
        <ele>24.17</ele>
        <time>2014-11-09T08:50:18Z</time>
      </trkpt>
      <trkpt lat="47.59358" lon="-0.68601">
        <ele>22.73</ele>
        <time>2014-11-09T08:50:27Z</time>
      </trkpt>
      <trkpt lat="47.59398" lon="-0.68625">
        <ele>23.21</ele>
        <time>2014-11-09T08:50:37Z</time>
      </trkpt>
      <trkpt lat="47.59447" lon="-0.68661">
        <ele>24.65</ele>
        <time>2014-11-09T08:50:49Z</time>
      </trkpt>
      <trkpt lat="47.59463" lon="-0.68668">
        <ele>25.13</ele>
        <time>2014-11-09T08:50:53Z</time>
      </trkpt>
      <trkpt lat="47.59479" lon="-0.68668">
        <ele>24.65</ele>
        <time>2014-11-09T08:50:56Z</time>
      </trkpt>
      <trkpt lat="47.59498" lon="-0.68676">
        <ele>24.17</ele>
        <time>2014-11-09T08:51:00Z</time>
      </trkpt>
      <trkpt lat="47.59533" lon="-0.68702">
        <ele>24.17</ele>
        <time>2014-11-09T08:51:07Z</time>
      </trkpt>
      <trkpt lat="47.5955" lon="-0.68713">
        <ele>24.17</ele>
        <time>2014-11-09T08:51:11Z</time>
      </trkpt>
      <trkpt lat="47.5956" lon="-0.68716">
        <ele>24.17</ele>
        <time>2014-11-09T08:51:13Z</time>
      </trkpt>
      <trkpt lat="47.59571" lon="-0.68718">
        <ele>24.17</ele>
        <time>2014-11-09T08:51:15Z</time>
      </trkpt>
      <trkpt lat="47.59623" lon="-0.6874">
        <ele>23.69</ele>
        <time>2014-11-09T08:51:25Z</time>
      </trkpt>
      <trkpt lat="47.59633" lon="-0.68744">
        <ele>23.21</ele>
        <time>2014-11-09T08:51:27Z</time>
      </trkpt>
      <trkpt lat="47.59653" lon="-0.68748">
        <ele>22.73</ele>
        <time>2014-11-09T08:51:31Z</time>
      </trkpt>
      <trkpt lat="47.59686" lon="-0.68754">
        <ele>22.25</ele>
        <time>2014-11-09T08:51:37Z</time>
      </trkpt>
      <trkpt lat="47.59706" lon="-0.68757">
        <ele>22.25</ele>
        <time>2014-11-09T08:51:41Z</time>
      </trkpt>
      <trkpt lat="47.59716" lon="-0.68757">
        <ele>23.21</ele>
        <time>2014-11-09T08:51:43Z</time>
      </trkpt>
      <trkpt lat="47.59735" lon="-0.68753">
        <ele>22.73</ele>
        <time>2014-11-09T08:51:47Z</time>
      </trkpt>
      <trkpt lat="47.59807" lon="-0.68745">
        <ele>22.73</ele>
        <time>2014-11-09T08:52:02Z</time>
      </trkpt>
      <trkpt lat="47.59845" lon="-0.6874">
        <ele>22.73</ele>
        <time>2014-11-09T08:52:10Z</time>
      </trkpt>
      <trkpt lat="47.59859" lon="-0.68739">
        <ele>23.21</ele>
        <time>2014-11-09T08:52:13Z</time>
      </trkpt>
      <trkpt lat="47.59915" lon="-0.68727">
        <ele>22.73</ele>
        <time>2014-11-09T08:52:26Z</time>
      </trkpt>
      <trkpt lat="47.59927" lon="-0.68727">
        <ele>22.25</ele>
        <time>2014-11-09T08:52:29Z</time>
      </trkpt>
      <trkpt lat="47.59941" lon="-0.68725">
        <ele>22.73</ele>
        <time>2014-11-09T08:52:32Z</time>
      </trkpt>
      <trkpt lat="47.59955" lon="-0.68722">
        <ele>22.73</ele>
        <time>2014-11-09T08:52:35Z</time>
      </trkpt>
      <trkpt lat="47.59969" lon="-0.68719">
        <ele>22.73</ele>
        <time>2014-11-09T08:52:38Z</time>
      </trkpt>
      <trkpt lat="47.59984" lon="-0.68711">
        <ele>22.25</ele>
        <time>2014-11-09T08:52:42Z</time>
      </trkpt>
      <trkpt lat="47.60045" lon="-0.68697">
        <ele>22.73</ele>
        <time>2014-11-09T08:52:56Z</time>
      </trkpt>
      <trkpt lat="47.6006" lon="-0.68694">
        <ele>22.73</ele>
        <time>2014-11-09T08:52:59Z</time>
      </trkpt>
      <trkpt lat="47.60073" lon="-0.68688">
        <ele>22.73</ele>
        <time>2014-11-09T08:53:02Z</time>
      </trkpt>
      <trkpt lat="47.60129" lon="-0.68671">
        <ele>22.25</ele>
        <time>2014-11-09T08:53:14Z</time>
      </trkpt>
      <trkpt lat="47.6015" lon="-0.6866">
        <ele>22.73</ele>
        <time>2014-11-09T08:53:19Z</time>
      </trkpt>
      <trkpt lat="47.60163" lon="-0.68659">
        <ele>22.25</ele>
        <time>2014-11-09T08:53:22Z</time>
      </trkpt>
      <trkpt lat="47.60172" lon="-0.68662">
        <ele>22.73</ele>
        <time>2014-11-09T08:53:24Z</time>
      </trkpt>
      <trkpt lat="47.60178" lon="-0.68684">
        <ele>22.25</ele>
        <time>2014-11-09T08:53:29Z</time>
      </trkpt>
      <trkpt lat="47.60165" lon="-0.68754">
        <ele>26.09</ele>
        <time>2014-11-09T08:53:43Z</time>
      </trkpt>
      <trkpt lat="47.60158" lon="-0.68775">
        <ele>28.02</ele>
        <time>2014-11-09T08:53:49Z</time>
      </trkpt>
      <trkpt lat="47.60158" lon="-0.68789">
        <ele>29.46</ele>
        <time>2014-11-09T08:54:00Z</time>
      </trkpt>
      <trkpt lat="47.60129" lon="-0.68803">
        <ele>31.38</ele>
        <time>2014-11-09T08:54:14Z</time>
      </trkpt>
      <trkpt lat="47.6009" lon="-0.68834">
        <ele>34.26</ele>
        <time>2014-11-09T08:54:31Z</time>
      </trkpt>
      <trkpt lat="47.60054" lon="-0.68852">
        <ele>37.15</ele>
        <time>2014-11-09T08:54:45Z</time>
      </trkpt>
      <trkpt lat="47.60016" lon="-0.68869">
        <ele>40.03</ele>
        <time>2014-11-09T08:54:59Z</time>
      </trkpt>
      <trkpt lat="47.59987" lon="-0.68903">
        <ele>42.92</ele>
        <time>2014-11-09T08:55:12Z</time>
      </trkpt>
      <trkpt lat="47.59966" lon="-0.68941">
        <ele>45.32</ele>
        <time>2014-11-09T08:55:24Z</time>
      </trkpt>
      <trkpt lat="47.59946" lon="-0.68993">
        <ele>48.2</ele>
        <time>2014-11-09T08:55:38Z</time>
      </trkpt>
      <trkpt lat="47.59941" lon="-0.69006">
        <ele>49.16</ele>
        <time>2014-11-09T08:55:42Z</time>
      </trkpt>
      <trkpt lat="47.59945" lon="-0.69014">
        <ele>49.65</ele>
        <time>2014-11-09T08:55:45Z</time>
      </trkpt>
      <trkpt lat="47.59953" lon="-0.69015">
        <ele>50.61</ele>
        <time>2014-11-09T08:55:50Z</time>
      </trkpt>
      <trkpt lat="47.59981" lon="-0.69023">
        <ele>54.45</ele>
        <time>2014-11-09T08:56:05Z</time>
      </trkpt>
      <trkpt lat="47.60003" lon="-0.69035">
        <ele>55.41</ele>
        <time>2014-11-09T08:56:16Z</time>
      </trkpt>
      <trkpt lat="47.60047" lon="-0.6906">
        <ele>54.45</ele>
        <time>2014-11-09T08:56:30Z</time>
      </trkpt>
      <trkpt lat="47.60084" lon="-0.69093">
        <ele>53.49</ele>
        <time>2014-11-09T08:56:42Z</time>
      </trkpt>
      <trkpt lat="47.60133" lon="-0.69113">
        <ele>52.53</ele>
        <time>2014-11-09T08:56:51Z</time>
      </trkpt>
      <trkpt lat="47.60206" lon="-0.69131">
        <ele>50.61</ele>
        <time>2014-11-09T08:57:04Z</time>
      </trkpt>
      <trkpt lat="47.60225" lon="-0.69131">
        <ele>49.65</ele>
        <time>2014-11-09T08:57:07Z</time>
      </trkpt>
      <trkpt lat="47.60275" lon="-0.69136">
        <ele>48.68</ele>
        <time>2014-11-09T08:57:15Z</time>
      </trkpt>
      <trkpt lat="47.60363" lon="-0.69166">
        <ele>47.24</ele>
        <time>2014-11-09T08:57:29Z</time>
      </trkpt>
      <trkpt lat="47.60368" lon="-0.69168">
        <ele>47.24</ele>
        <time>2014-11-09T08:57:30Z</time>
      </trkpt>
      <trkpt lat="47.6039" lon="-0.69144">
        <ele>45.8</ele>
        <time>2014-11-09T08:57:37Z</time>
      </trkpt>
      <trkpt lat="47.60381" lon="-0.69058">
        <ele>41.47</ele>
        <time>2014-11-09T08:57:47Z</time>
      </trkpt>
      <trkpt lat="47.60376" lon="-0.69024">
        <ele>39.55</ele>
        <time>2014-11-09T08:57:50Z</time>
      </trkpt>
      <trkpt lat="47.60373" lon="-0.6899">
        <ele>36.19</ele>
        <time>2014-11-09T08:57:53Z</time>
      </trkpt>
      <trkpt lat="47.60374" lon="-0.6897">
        <ele>35.23</ele>
        <time>2014-11-09T08:57:55Z</time>
      </trkpt>
      <trkpt lat="47.60385" lon="-0.68929">
        <ele>32.82</ele>
        <time>2014-11-09T08:58:00Z</time>
      </trkpt>
      <trkpt lat="47.60382" lon="-0.68905">
        <ele>30.9</ele>
        <time>2014-11-09T08:58:07Z</time>
      </trkpt>
      <trkpt lat="47.6038" lon="-0.68905">
        <ele>31.86</ele>
        <time>2014-11-09T08:58:10Z</time>
      </trkpt>
      <trkpt lat="47.60383" lon="-0.6891">
        <ele>31.86</ele>
        <time>2014-11-09T08:58:14Z</time>
      </trkpt>
      <trkpt lat="47.6039" lon="-0.68912">
        <ele>30.9</ele>
        <time>2014-11-09T08:58:28Z</time>
      </trkpt>
      <trkpt lat="47.60391" lon="-0.68912">
        <ele>30.9</ele>
        <time>2014-11-09T08:58:51Z</time>
      </trkpt>
      <trkpt lat="47.60392" lon="-0.68909">
        <ele>30.9</ele>
        <time>2014-11-09T08:59:05Z</time>
      </trkpt>
      <trkpt lat="47.60392" lon="-0.68909">
        <ele>30.9</ele>
        <time>2014-11-09T08:59:23Z</time>
      </trkpt>
      <trkpt lat="47.60381" lon="-0.68889">
        <ele>29.94</ele>
        <time>2014-11-09T08:59:31Z</time>
      </trkpt>
      <trkpt lat="47.60343" lon="-0.68861">
        <ele>30.9</ele>
        <time>2014-11-09T08:59:43Z</time>
      </trkpt>
      <trkpt lat="47.6033" lon="-0.68844">
        <ele>29.94</ele>
        <time>2014-11-09T08:59:47Z</time>
      </trkpt>
      <trkpt lat="47.60322" lon="-0.68824">
        <ele>26.09</ele>
        <time>2014-11-09T08:59:50Z</time>
      </trkpt>
      <trkpt lat="47.60319" lon="-0.68817">
        <ele>33.3</ele>
        <time>2014-11-09T08:59:51Z</time>
      </trkpt>
      <trkpt lat="47.60293" lon="-0.68783">
        <ele>28.02</ele>
        <time>2014-11-09T08:59:57Z</time>
      </trkpt>
      <trkpt lat="47.60284" lon="-0.68771">
        <ele>27.05</ele>
        <time>2014-11-09T09:00:00Z</time>
      </trkpt>
      <trkpt lat="47.60289" lon="-0.68745">
        <ele>26.57</ele>
        <time>2014-11-09T09:00:04Z</time>
      </trkpt>
      <trkpt lat="47.60295" lon="-0.68729">
        <ele>25.61</ele>
        <time>2014-11-09T09:00:06Z</time>
      </trkpt>
      <trkpt lat="47.60304" lon="-0.68694">
        <ele>24.65</ele>
        <time>2014-11-09T09:00:10Z</time>
      </trkpt>
      <trkpt lat="47.60319" lon="-0.68669">
        <ele>23.69</ele>
        <time>2014-11-09T09:00:14Z</time>
      </trkpt>
      <trkpt lat="47.60351" lon="-0.68659">
        <ele>24.17</ele>
        <time>2014-11-09T09:00:23Z</time>
      </trkpt>
      <trkpt lat="47.60412" lon="-0.68657">
        <ele>25.61</ele>
        <time>2014-11-09T09:00:39Z</time>
      </trkpt>
      <trkpt lat="47.60467" lon="-0.68672">
        <ele>25.61</ele>
        <time>2014-11-09T09:00:53Z</time>
      </trkpt>
      <trkpt lat="47.60472" lon="-0.68672">
        <ele>25.13</ele>
        <time>2014-11-09T09:00:54Z</time>
      </trkpt>
      <trkpt lat="47.60552" lon="-0.6869">
        <ele>25.13</ele>
        <time>2014-11-09T09:01:10Z</time>
      </trkpt>
      <trkpt lat="47.60659" lon="-0.6871">
        <ele>25.61</ele>
        <time>2014-11-09T09:01:29Z</time>
      </trkpt>
      <trkpt lat="47.6075" lon="-0.68728">
        <ele>25.61</ele>
        <time>2014-11-09T09:01:45Z</time>
      </trkpt>
      <trkpt lat="47.60854" lon="-0.6875">
        <ele>25.61</ele>
        <time>2014-11-09T09:02:03Z</time>
      </trkpt>
      <trkpt lat="47.6095" lon="-0.68771">
        <ele>26.09</ele>
        <time>2014-11-09T09:02:19Z</time>
      </trkpt>
      <trkpt lat="47.61047" lon="-0.6879">
        <ele>25.61</ele>
        <time>2014-11-09T09:02:35Z</time>
      </trkpt>
      <trkpt lat="47.61144" lon="-0.68817">
        <ele>25.61</ele>
        <time>2014-11-09T09:02:52Z</time>
      </trkpt>
      <trkpt lat="47.61208" lon="-0.68873">
        <ele>25.61</ele>
        <time>2014-11-09T09:03:05Z</time>
      </trkpt>
      <trkpt lat="47.61238" lon="-0.68904">
        <ele>24.65</ele>
        <time>2014-11-09T09:03:11Z</time>
      </trkpt>
      <trkpt lat="47.61311" lon="-0.69003">
        <ele>24.65</ele>
        <time>2014-11-09T09:03:28Z</time>
      </trkpt>
      <trkpt lat="47.61398" lon="-0.69104">
        <ele>24.65</ele>
        <time>2014-11-09T09:03:47Z</time>
      </trkpt>
      <trkpt lat="47.6147" lon="-0.69195">
        <ele>25.13</ele>
        <time>2014-11-09T09:04:04Z</time>
      </trkpt>
      <trkpt lat="47.6149" lon="-0.69234">
        <ele>24.65</ele>
        <time>2014-11-09T09:04:10Z</time>
      </trkpt>
      <trkpt lat="47.61551" lon="-0.69344">
        <ele>24.65</ele>
        <time>2014-11-09T09:04:27Z</time>
      </trkpt>
      <trkpt lat="47.61564" lon="-0.69379">
        <ele>25.13</ele>
        <time>2014-11-09T09:04:32Z</time>
      </trkpt>
      <trkpt lat="47.61573" lon="-0.69403">
        <ele>26.09</ele>
        <time>2014-11-09T09:04:36Z</time>
      </trkpt>
      <trkpt lat="47.61592" lon="-0.69443">
        <ele>28.02</ele>
        <time>2014-11-09T09:04:47Z</time>
      </trkpt>
      <trkpt lat="47.61626" lon="-0.69462">
        <ele>28.5</ele>
        <time>2014-11-09T09:04:58Z</time>
      </trkpt>
      <trkpt lat="47.61656" lon="-0.69465">
        <ele>28.5</ele>
        <time>2014-11-09T09:05:06Z</time>
      </trkpt>
      <trkpt lat="47.61661" lon="-0.69466">
        <ele>27.53</ele>
        <time>2014-11-09T09:05:09Z</time>
      </trkpt>
      <trkpt lat="47.61663" lon="-0.69469">
        <ele>27.53</ele>
        <time>2014-11-09T09:05:11Z</time>
      </trkpt>
      <trkpt lat="47.61664" lon="-0.69491">
        <ele>24.65</ele>
        <time>2014-11-09T09:05:15Z</time>
      </trkpt>
      <trkpt lat="47.61662" lon="-0.6952">
        <ele>24.17</ele>
        <time>2014-11-09T09:05:18Z</time>
      </trkpt>
      <trkpt lat="47.61661" lon="-0.69549">
        <ele>24.17</ele>
        <time>2014-11-09T09:05:21Z</time>
      </trkpt>
      <trkpt lat="47.61659" lon="-0.69565">
        <ele>24.17</ele>
        <time>2014-11-09T09:05:23Z</time>
      </trkpt>
      <trkpt lat="47.61658" lon="-0.69627">
        <ele>24.17</ele>
        <time>2014-11-09T09:05:31Z</time>
      </trkpt>
      <trkpt lat="47.61656" lon="-0.69648">
        <ele>24.17</ele>
        <time>2014-11-09T09:05:34Z</time>
      </trkpt>
      <trkpt lat="47.61662" lon="-0.69762">
        <ele>24.65</ele>
        <time>2014-11-09T09:05:49Z</time>
      </trkpt>
      <trkpt lat="47.61668" lon="-0.69915">
        <ele>24.65</ele>
        <time>2014-11-09T09:06:08Z</time>
      </trkpt>
      <trkpt lat="47.61668" lon="-0.69932">
        <ele>24.17</ele>
        <time>2014-11-09T09:06:10Z</time>
      </trkpt>
      <trkpt lat="47.61654" lon="-0.69966">
        <ele>24.17</ele>
        <time>2014-11-09T09:06:15Z</time>
      </trkpt>
      <trkpt lat="47.61651" lon="-0.70014">
        <ele>24.17</ele>
        <time>2014-11-09T09:06:22Z</time>
      </trkpt>
      <trkpt lat="47.61666" lon="-0.70065">
        <ele>24.17</ele>
        <time>2014-11-09T09:06:29Z</time>
      </trkpt>
      <trkpt lat="47.61697" lon="-0.70149">
        <ele>25.13</ele>
        <time>2014-11-09T09:06:41Z</time>
      </trkpt>
      <trkpt lat="47.61738" lon="-0.70217">
        <ele>24.65</ele>
        <time>2014-11-09T09:06:53Z</time>
      </trkpt>
      <trkpt lat="47.61805" lon="-0.70287">
        <ele>24.65</ele>
        <time>2014-11-09T09:07:08Z</time>
      </trkpt>
      <trkpt lat="47.61832" lon="-0.70324">
        <ele>24.17</ele>
        <time>2014-11-09T09:07:15Z</time>
      </trkpt>
      <trkpt lat="47.61877" lon="-0.70332">
        <ele>23.69</ele>
        <time>2014-11-09T09:07:24Z</time>
      </trkpt>
      <trkpt lat="47.61906" lon="-0.70315">
        <ele>24.17</ele>
        <time>2014-11-09T09:07:30Z</time>
      </trkpt>
      <trkpt lat="47.61946" lon="-0.70304">
        <ele>24.17</ele>
        <time>2014-11-09T09:07:40Z</time>
      </trkpt>
      <trkpt lat="47.61958" lon="-0.70307">
        <ele>25.13</ele>
        <time>2014-11-09T09:07:43Z</time>
      </trkpt>
      <trkpt lat="47.61992" lon="-0.70301">
        <ele>27.05</ele>
        <time>2014-11-09T09:07:52Z</time>
      </trkpt>
      <trkpt lat="47.62027" lon="-0.70291">
        <ele>28.98</ele>
        <time>2014-11-09T09:08:02Z</time>
      </trkpt>
      <trkpt lat="47.62052" lon="-0.70262">
        <ele>29.46</ele>
        <time>2014-11-09T09:08:10Z</time>
      </trkpt>
      <trkpt lat="47.62101" lon="-0.7024">
        <ele>29.46</ele>
        <time>2014-11-09T09:08:22Z</time>
      </trkpt>
      <trkpt lat="47.62148" lon="-0.70241">
        <ele>30.42</ele>
        <time>2014-11-09T09:08:33Z</time>
      </trkpt>
      <trkpt lat="47.62199" lon="-0.7026">
        <ele>29.94</ele>
        <time>2014-11-09T09:08:44Z</time>
      </trkpt>
      <trkpt lat="47.62252" lon="-0.70272">
        <ele>30.9</ele>
        <time>2014-11-09T09:08:55Z</time>
      </trkpt>
      <trkpt lat="47.6226" lon="-0.70269">
        <ele>31.86</ele>
        <time>2014-11-09T09:08:59Z</time>
      </trkpt>
      <trkpt lat="47.62272" lon="-0.70274">
        <ele>31.86</ele>
        <time>2014-11-09T09:09:05Z</time>
      </trkpt>
      <trkpt lat="47.62284" lon="-0.70281">
        <ele>31.86</ele>
        <time>2014-11-09T09:09:16Z</time>
      </trkpt>
      <trkpt lat="47.62278" lon="-0.70278">
        <ele>32.34</ele>
        <time>2014-11-09T09:09:20Z</time>
      </trkpt>
      <trkpt lat="47.62262" lon="-0.70273">
        <ele>32.34</ele>
        <time>2014-11-09T09:09:33Z</time>
      </trkpt>
      <trkpt lat="47.62261" lon="-0.70275">
        <ele>31.86</ele>
        <time>2014-11-09T09:09:46Z</time>
      </trkpt>
      <trkpt lat="47.62259" lon="-0.70274">
        <ele>31.86</ele>
        <time>2014-11-09T09:09:48Z</time>
      </trkpt>
      <trkpt lat="47.62261" lon="-0.70274">
        <ele>32.34</ele>
        <time>2014-11-09T09:10:00Z</time>
      </trkpt>
      <trkpt lat="47.62262" lon="-0.70274">
        <ele>31.86</ele>
        <time>2014-11-09T09:10:02Z</time>
      </trkpt>
      <trkpt lat="47.62266" lon="-0.70275">
        <ele>31.86</ele>
        <time>2014-11-09T09:10:16Z</time>
      </trkpt>
      <trkpt lat="47.62264" lon="-0.70273">
        <ele>32.34</ele>
        <time>2014-11-09T09:10:30Z</time>
      </trkpt>
      <trkpt lat="47.62262" lon="-0.70269">
        <ele>32.34</ele>
        <time>2014-11-09T09:11:07Z</time>
      </trkpt>
      <trkpt lat="47.62265" lon="-0.70267">
        <ele>31.86</ele>
        <time>2014-11-09T09:11:44Z</time>
      </trkpt>
      <trkpt lat="47.62261" lon="-0.70271">
        <ele>31.86</ele>
        <time>2014-11-09T09:12:20Z</time>
      </trkpt>
      <trkpt lat="47.62261" lon="-0.70272">
        <ele>31.86</ele>
        <time>2014-11-09T09:12:52Z</time>
      </trkpt>
      <trkpt lat="47.62262" lon="-0.70269">
        <ele>31.86</ele>
        <time>2014-11-09T09:13:29Z</time>
      </trkpt>
      <trkpt lat="47.6226" lon="-0.70271">
        <ele>31.86</ele>
        <time>2014-11-09T09:14:05Z</time>
      </trkpt>
      <trkpt lat="47.62263" lon="-0.70273">
        <ele>32.34</ele>
        <time>2014-11-09T09:14:49Z</time>
      </trkpt>
      <trkpt lat="47.62265" lon="-0.70274">
        <ele>31.86</ele>
        <time>2014-11-09T09:15:29Z</time>
      </trkpt>
      <trkpt lat="47.62263" lon="-0.70274">
        <ele>31.86</ele>
        <time>2014-11-09T09:16:06Z</time>
      </trkpt>
      <trkpt lat="47.62268" lon="-0.70276">
        <ele>32.34</ele>
        <time>2014-11-09T09:16:38Z</time>
      </trkpt>
      <trkpt lat="47.62266" lon="-0.70274">
        <ele>32.34</ele>
        <time>2014-11-09T09:17:10Z</time>
      </trkpt>
      <trkpt lat="47.62265" lon="-0.70272">
        <ele>32.82</ele>
        <time>2014-11-09T09:17:41Z</time>
      </trkpt>
      <trkpt lat="47.62264" lon="-0.70274">
        <ele>32.82</ele>
        <time>2014-11-09T09:18:13Z</time>
      </trkpt>
      <trkpt lat="47.6226" lon="-0.70275">
        <ele>32.34</ele>
        <time>2014-11-09T09:18:40Z</time>
      </trkpt>
      <trkpt lat="47.6226" lon="-0.70274">
        <ele>32.34</ele>
        <time>2014-11-09T09:19:09Z</time>
      </trkpt>
      <trkpt lat="47.6226" lon="-0.70276">
        <ele>32.34</ele>
        <time>2014-11-09T09:19:32Z</time>
      </trkpt>
      <trkpt lat="47.62259" lon="-0.70272">
        <ele>32.82</ele>
        <time>2014-11-09T09:20:10Z</time>
      </trkpt>
      <trkpt lat="47.62261" lon="-0.70271">
        <ele>32.82</ele>
        <time>2014-11-09T09:20:44Z</time>
      </trkpt>
      <trkpt lat="47.62261" lon="-0.70271">
        <ele>32.82</ele>
        <time>2014-11-09T09:21:12Z</time>
      </trkpt>
      <trkpt lat="47.62258" lon="-0.70277">
        <ele>32.82</ele>
        <time>2014-11-09T09:21:45Z</time>
      </trkpt>
      <trkpt lat="47.62264" lon="-0.70275">
        <ele>33.3</ele>
        <time>2014-11-09T09:22:14Z</time>
      </trkpt>
      <trkpt lat="47.6226" lon="-0.70272">
        <ele>32.82</ele>
        <time>2014-11-09T09:22:52Z</time>
      </trkpt>
      <trkpt lat="47.62261" lon="-0.7028">
        <ele>32.82</ele>
        <time>2014-11-09T09:23:13Z</time>
      </trkpt>
      <trkpt lat="47.62265" lon="-0.70281">
        <ele>33.3</ele>
        <time>2014-11-09T09:23:16Z</time>
      </trkpt>
      <trkpt lat="47.62292" lon="-0.70292">
        <ele>33.3</ele>
        <time>2014-11-09T09:23:31Z</time>
      </trkpt>
      <trkpt lat="47.62324" lon="-0.70311">
        <ele>33.3</ele>
        <time>2014-11-09T09:23:43Z</time>
      </trkpt>
      <trkpt lat="47.62357" lon="-0.70344">
        <ele>34.74</ele>
        <time>2014-11-09T09:23:57Z</time>
      </trkpt>
      <trkpt lat="47.62404" lon="-0.70379">
        <ele>35.71</ele>
        <time>2014-11-09T09:24:12Z</time>
      </trkpt>
      <trkpt lat="47.62427" lon="-0.70363">
        <ele>35.71</ele>
        <time>2014-11-09T09:24:18Z</time>
      </trkpt>
      <trkpt lat="47.62471" lon="-0.70295">
        <ele>35.71</ele>
        <time>2014-11-09T09:24:33Z</time>
      </trkpt>
      <trkpt lat="47.62488" lon="-0.70271">
        <ele>36.19</ele>
        <time>2014-11-09T09:24:39Z</time>
      </trkpt>
      <trkpt lat="47.62504" lon="-0.7027">
        <ele>39.07</ele>
        <time>2014-11-09T09:24:43Z</time>
      </trkpt>
      <trkpt lat="47.62575" lon="-0.70289">
        <ele>35.71</ele>
        <time>2014-11-09T09:24:58Z</time>
      </trkpt>
      <trkpt lat="47.62612" lon="-0.70297">
        <ele>35.71</ele>
        <time>2014-11-09T09:25:05Z</time>
      </trkpt>
      <trkpt lat="47.62644" lon="-0.70302">
        <ele>35.23</ele>
        <time>2014-11-09T09:25:11Z</time>
      </trkpt>
      <trkpt lat="47.62654" lon="-0.70305">
        <ele>34.74</ele>
        <time>2014-11-09T09:25:13Z</time>
      </trkpt>
      <trkpt lat="47.62663" lon="-0.70306">
        <ele>34.74</ele>
        <time>2014-11-09T09:25:15Z</time>
      </trkpt>
      <trkpt lat="47.62712" lon="-0.70316">
        <ele>33.78</ele>
        <time>2014-11-09T09:25:25Z</time>
      </trkpt>
      <trkpt lat="47.62721" lon="-0.70317">
        <ele>33.78</ele>
        <time>2014-11-09T09:25:27Z</time>
      </trkpt>
      <trkpt lat="47.6273" lon="-0.70315">
        <ele>33.78</ele>
        <time>2014-11-09T09:25:29Z</time>
      </trkpt>
      <trkpt lat="47.62774" lon="-0.70283">
        <ele>36.19</ele>
        <time>2014-11-09T09:25:42Z</time>
      </trkpt>
      <trkpt lat="47.62808" lon="-0.70249">
        <ele>38.11</ele>
        <time>2014-11-09T09:25:54Z</time>
      </trkpt>
      <trkpt lat="47.62841" lon="-0.70197">
        <ele>39.55</ele>
        <time>2014-11-09T09:26:07Z</time>
      </trkpt>
      <trkpt lat="47.62851" lon="-0.7018">
        <ele>40.51</ele>
        <time>2014-11-09T09:26:11Z</time>
      </trkpt>
      <trkpt lat="47.62873" lon="-0.70127">
        <ele>41.95</ele>
        <time>2014-11-09T09:26:25Z</time>
      </trkpt>
      <trkpt lat="47.6289" lon="-0.7009">
        <ele>42.44</ele>
        <time>2014-11-09T09:26:34Z</time>
      </trkpt>
      <trkpt lat="47.62908" lon="-0.70036">
        <ele>43.4</ele>
        <time>2014-11-09T09:26:46Z</time>
      </trkpt>
      <trkpt lat="47.62929" lon="-0.69985">
        <ele>43.88</ele>
        <time>2014-11-09T09:26:56Z</time>
      </trkpt>
      <trkpt lat="47.62963" lon="-0.69905">
        <ele>44.36</ele>
        <time>2014-11-09T09:27:09Z</time>
      </trkpt>
      <trkpt lat="47.62993" lon="-0.69833">
        <ele>44.84</ele>
        <time>2014-11-09T09:27:22Z</time>
      </trkpt>
      <trkpt lat="47.63027" lon="-0.69764">
        <ele>46.76</ele>
        <time>2014-11-09T09:27:37Z</time>
      </trkpt>
      <trkpt lat="47.63065" lon="-0.69694">
        <ele>47.72</ele>
        <time>2014-11-09T09:27:53Z</time>
      </trkpt>
      <trkpt lat="47.63099" lon="-0.69634">
        <ele>48.68</ele>
        <time>2014-11-09T09:28:07Z</time>
      </trkpt>
      <trkpt lat="47.63124" lon="-0.69585">
        <ele>47.72</ele>
        <time>2014-11-09T09:28:18Z</time>
      </trkpt>
      <trkpt lat="47.6311" lon="-0.69535">
        <ele>45.8</ele>
        <time>2014-11-09T09:28:28Z</time>
      </trkpt>
      <trkpt lat="47.63092" lon="-0.69482">
        <ele>42.92</ele>
        <time>2014-11-09T09:28:39Z</time>
      </trkpt>
      <trkpt lat="47.63085" lon="-0.6946">
        <ele>39.07</ele>
        <time>2014-11-09T09:28:44Z</time>
      </trkpt>
      <trkpt lat="47.63094" lon="-0.69444">
        <ele>36.19</ele>
        <time>2014-11-09T09:28:50Z</time>
      </trkpt>
      <trkpt lat="47.6311" lon="-0.69436">
        <ele>31.86</ele>
        <time>2014-11-09T09:28:54Z</time>
      </trkpt>
      <trkpt lat="47.63119" lon="-0.69433">
        <ele>28.98</ele>
        <time>2014-11-09T09:28:57Z</time>
      </trkpt>
      <trkpt lat="47.63121" lon="-0.69431">
        <ele>28.5</ele>
        <time>2014-11-09T09:28:58Z</time>
      </trkpt>
      <trkpt lat="47.6312" lon="-0.69421">
        <ele>26.09</ele>
        <time>2014-11-09T09:29:03Z</time>
      </trkpt>
      <trkpt lat="47.63093" lon="-0.69415">
        <ele>26.57</ele>
        <time>2014-11-09T09:29:13Z</time>
      </trkpt>
      <trkpt lat="47.63063" lon="-0.69415">
        <ele>26.57</ele>
        <time>2014-11-09T09:29:22Z</time>
      </trkpt>
      <trkpt lat="47.63023" lon="-0.69433">
        <ele>26.57</ele>
        <time>2014-11-09T09:29:34Z</time>
      </trkpt>
      <trkpt lat="47.62975" lon="-0.69454">
        <ele>27.05</ele>
        <time>2014-11-09T09:29:47Z</time>
      </trkpt>
      <trkpt lat="47.62964" lon="-0.69458">
        <ele>27.05</ele>
        <time>2014-11-09T09:29:50Z</time>
      </trkpt>
      <trkpt lat="47.62955" lon="-0.69429">
        <ele>26.09</ele>
        <time>2014-11-09T09:29:59Z</time>
      </trkpt>
      <trkpt lat="47.62965" lon="-0.69423">
        <ele>25.61</ele>
        <time>2014-11-09T09:30:02Z</time>
      </trkpt>
      <trkpt lat="47.63022" lon="-0.69392">
        <ele>27.05</ele>
        <time>2014-11-09T09:30:16Z</time>
      </trkpt>
      <trkpt lat="47.63036" lon="-0.69385">
        <ele>26.57</ele>
        <time>2014-11-09T09:30:19Z</time>
      </trkpt>
      <trkpt lat="47.63076" lon="-0.69384">
        <ele>26.57</ele>
        <time>2014-11-09T09:30:27Z</time>
      </trkpt>
      <trkpt lat="47.63085" lon="-0.69384">
        <ele>27.05</ele>
        <time>2014-11-09T09:30:29Z</time>
      </trkpt>
      <trkpt lat="47.63094" lon="-0.69385">
        <ele>26.57</ele>
        <time>2014-11-09T09:30:31Z</time>
      </trkpt>
      <trkpt lat="47.63121" lon="-0.6938">
        <ele>26.57</ele>
        <time>2014-11-09T09:30:37Z</time>
      </trkpt>
      <trkpt lat="47.63152" lon="-0.69337">
        <ele>26.57</ele>
        <time>2014-11-09T09:30:45Z</time>
      </trkpt>
      <trkpt lat="47.6316" lon="-0.693">
        <ele>26.57</ele>
        <time>2014-11-09T09:30:51Z</time>
      </trkpt>
      <trkpt lat="47.63154" lon="-0.69212">
        <ele>26.57</ele>
        <time>2014-11-09T09:31:04Z</time>
      </trkpt>
      <trkpt lat="47.63154" lon="-0.69185">
        <ele>26.57</ele>
        <time>2014-11-09T09:31:08Z</time>
      </trkpt>
      <trkpt lat="47.63155" lon="-0.69172">
        <ele>26.57</ele>
        <time>2014-11-09T09:31:10Z</time>
      </trkpt>
      <trkpt lat="47.63184" lon="-0.69158">
        <ele>26.57</ele>
        <time>2014-11-09T09:31:18Z</time>
      </trkpt>
      <trkpt lat="47.63198" lon="-0.69151">
        <ele>26.57</ele>
        <time>2014-11-09T09:31:22Z</time>
      </trkpt>
      <trkpt lat="47.6326" lon="-0.69143">
        <ele>26.57</ele>
        <time>2014-11-09T09:31:35Z</time>
      </trkpt>
      <trkpt lat="47.63273" lon="-0.69137">
        <ele>26.57</ele>
        <time>2014-11-09T09:31:38Z</time>
      </trkpt>
      <trkpt lat="47.63336" lon="-0.69099">
        <ele>26.57</ele>
        <time>2014-11-09T09:31:53Z</time>
      </trkpt>
      <trkpt lat="47.63342" lon="-0.69098">
        <ele>26.57</ele>
        <time>2014-11-09T09:31:55Z</time>
      </trkpt>
      <trkpt lat="47.63385" lon="-0.69154">
        <ele>27.05</ele>
        <time>2014-11-09T09:32:07Z</time>
      </trkpt>
      <trkpt lat="47.63394" lon="-0.69164">
        <ele>27.05</ele>
        <time>2014-11-09T09:32:09Z</time>
      </trkpt>
      <trkpt lat="47.63416" lon="-0.6924">
        <ele>27.53</ele>
        <time>2014-11-09T09:32:20Z</time>
      </trkpt>
      <trkpt lat="47.63438" lon="-0.69337">
        <ele>29.46</ele>
        <time>2014-11-09T09:32:37Z</time>
      </trkpt>
      <trkpt lat="47.63444" lon="-0.69345">
        <ele>29.46</ele>
        <time>2014-11-09T09:32:40Z</time>
      </trkpt>
      <trkpt lat="47.63437" lon="-0.69402">
        <ele>31.86</ele>
        <time>2014-11-09T09:32:52Z</time>
      </trkpt>
      <trkpt lat="47.63431" lon="-0.69441">
        <ele>34.74</ele>
        <time>2014-11-09T09:33:00Z</time>
      </trkpt>
      <trkpt lat="47.63428" lon="-0.69459">
        <ele>36.67</ele>
        <time>2014-11-09T09:33:04Z</time>
      </trkpt>
      <trkpt lat="47.6342" lon="-0.6949">
        <ele>40.03</ele>
        <time>2014-11-09T09:33:11Z</time>
      </trkpt>
      <trkpt lat="47.63417" lon="-0.69504">
        <ele>41.47</ele>
        <time>2014-11-09T09:33:14Z</time>
      </trkpt>
      <trkpt lat="47.63407" lon="-0.69545">
        <ele>44.84</ele>
        <time>2014-11-09T09:33:26Z</time>
      </trkpt>
      <trkpt lat="47.63401" lon="-0.69567">
        <ele>45.32</ele>
        <time>2014-11-09T09:33:35Z</time>
      </trkpt>
      <trkpt lat="47.63369" lon="-0.69565">
        <ele>44.36</ele>
        <time>2014-11-09T09:33:45Z</time>
      </trkpt>
      <trkpt lat="47.63359" lon="-0.69565">
        <ele>43.88</ele>
        <time>2014-11-09T09:33:47Z</time>
      </trkpt>
      <trkpt lat="47.63349" lon="-0.69562">
        <ele>43.4</ele>
        <time>2014-11-09T09:33:49Z</time>
      </trkpt>
      <trkpt lat="47.63326" lon="-0.69547">
        <ele>41.95</ele>
        <time>2014-11-09T09:33:53Z</time>
      </trkpt>
      <trkpt lat="47.63271" lon="-0.6951">
        <ele>37.15</ele>
        <time>2014-11-09T09:34:02Z</time>
      </trkpt>
      <trkpt lat="47.63269" lon="-0.69509">
        <ele>36.67</ele>
        <time>2014-11-09T09:34:03Z</time>
      </trkpt>
      <trkpt lat="47.63264" lon="-0.69494">
        <ele>36.19</ele>
        <time>2014-11-09T09:34:08Z</time>
      </trkpt>
      <trkpt lat="47.63269" lon="-0.69447">
        <ele>35.23</ele>
        <time>2014-11-09T09:34:17Z</time>
      </trkpt>
      <trkpt lat="47.63294" lon="-0.69327">
        <ele>31.86</ele>
        <time>2014-11-09T09:34:32Z</time>
      </trkpt>
      <trkpt lat="47.63325" lon="-0.69182">
        <ele>31.86</ele>
        <time>2014-11-09T09:34:50Z</time>
      </trkpt>
      <trkpt lat="47.63356" lon="-0.69031">
        <ele>30.9</ele>
        <time>2014-11-09T09:35:09Z</time>
      </trkpt>
      <trkpt lat="47.63363" lon="-0.6899">
        <ele>30.42</ele>
        <time>2014-11-09T09:35:14Z</time>
      </trkpt>
      <trkpt lat="47.63352" lon="-0.68961">
        <ele>29.46</ele>
        <time>2014-11-09T09:35:21Z</time>
      </trkpt>
      <trkpt lat="47.63342" lon="-0.68949">
        <ele>26.57</ele>
        <time>2014-11-09T09:35:25Z</time>
      </trkpt>
      <trkpt lat="47.6334" lon="-0.68942">
        <ele>26.57</ele>
        <time>2014-11-09T09:35:26Z</time>
      </trkpt>
      <trkpt lat="47.63325" lon="-0.68884">
        <ele>27.05</ele>
        <time>2014-11-09T09:35:37Z</time>
      </trkpt>
      <trkpt lat="47.63314" lon="-0.68861">
        <ele>25.61</ele>
        <time>2014-11-09T09:35:43Z</time>
      </trkpt>
      <trkpt lat="47.63293" lon="-0.68814">
        <ele>25.61</ele>
        <time>2014-11-09T09:35:54Z</time>
      </trkpt>
      <trkpt lat="47.63284" lon="-0.6879">
        <ele>25.13</ele>
        <time>2014-11-09T09:36:05Z</time>
      </trkpt>
      <trkpt lat="47.63279" lon="-0.68768">
        <ele>26.09</ele>
        <time>2014-11-09T09:36:18Z</time>
      </trkpt>
      <trkpt lat="47.63269" lon="-0.68732">
        <ele>26.57</ele>
        <time>2014-11-09T09:36:27Z</time>
      </trkpt>
      <trkpt lat="47.63264" lon="-0.68712">
        <ele>29.46</ele>
        <time>2014-11-09T09:36:39Z</time>
      </trkpt>
      <trkpt lat="47.63261" lon="-0.68709">
        <ele>28.98</ele>
        <time>2014-11-09T09:36:52Z</time>
      </trkpt>
      <trkpt lat="47.63246" lon="-0.68704">
        <ele>28.98</ele>
        <time>2014-11-09T09:37:00Z</time>
      </trkpt>
      <trkpt lat="47.63235" lon="-0.68699">
        <ele>29.46</ele>
        <time>2014-11-09T09:37:04Z</time>
      </trkpt>
      <trkpt lat="47.63234" lon="-0.68687">
        <ele>29.94</ele>
        <time>2014-11-09T09:37:08Z</time>
      </trkpt>
      <trkpt lat="47.63247" lon="-0.68619">
        <ele>30.42</ele>
        <time>2014-11-09T09:37:22Z</time>
      </trkpt>
      <trkpt lat="47.63259" lon="-0.68554">
        <ele>31.38</ele>
        <time>2014-11-09T09:37:35Z</time>
      </trkpt>
      <trkpt lat="47.63267" lon="-0.6852">
        <ele>31.86</ele>
        <time>2014-11-09T09:37:41Z</time>
      </trkpt>
      <trkpt lat="47.63277" lon="-0.68473">
        <ele>30.9</ele>
        <time>2014-11-09T09:37:49Z</time>
      </trkpt>
      <trkpt lat="47.63288" lon="-0.68385">
        <ele>31.86</ele>
        <time>2014-11-09T09:38:03Z</time>
      </trkpt>
      <trkpt lat="47.63291" lon="-0.68366">
        <ele>31.86</ele>
        <time>2014-11-09T09:38:06Z</time>
      </trkpt>
      <trkpt lat="47.63282" lon="-0.683">
        <ele>32.82</ele>
        <time>2014-11-09T09:38:18Z</time>
      </trkpt>
      <trkpt lat="47.63274" lon="-0.68243">
        <ele>32.34</ele>
        <time>2014-11-09T09:38:28Z</time>
      </trkpt>
      <trkpt lat="47.63262" lon="-0.68163">
        <ele>32.34</ele>
        <time>2014-11-09T09:38:41Z</time>
      </trkpt>
      <trkpt lat="47.63246" lon="-0.68142">
        <ele>32.82</ele>
        <time>2014-11-09T09:38:46Z</time>
      </trkpt>
      <trkpt lat="47.63234" lon="-0.68132">
        <ele>32.82</ele>
        <time>2014-11-09T09:38:49Z</time>
      </trkpt>
      <trkpt lat="47.63228" lon="-0.68108">
        <ele>32.82</ele>
        <time>2014-11-09T09:38:54Z</time>
      </trkpt>
      <trkpt lat="47.63262" lon="-0.68041">
        <ele>32.34</ele>
        <time>2014-11-09T09:39:07Z</time>
      </trkpt>
      <trkpt lat="47.63286" lon="-0.67994">
        <ele>32.82</ele>
        <time>2014-11-09T09:39:17Z</time>
      </trkpt>
      <trkpt lat="47.63291" lon="-0.67984">
        <ele>32.82</ele>
        <time>2014-11-09T09:39:19Z</time>
      </trkpt>
      <trkpt lat="47.63311" lon="-0.67973">
        <ele>32.82</ele>
        <time>2014-11-09T09:39:24Z</time>
      </trkpt>
      <trkpt lat="47.63336" lon="-0.6796">
        <ele>32.82</ele>
        <time>2014-11-09T09:39:30Z</time>
      </trkpt>
      <trkpt lat="47.6336" lon="-0.67959">
        <ele>32.34</ele>
        <time>2014-11-09T09:39:36Z</time>
      </trkpt>
      <trkpt lat="47.63363" lon="-0.67947">
        <ele>31.86</ele>
        <time>2014-11-09T09:39:40Z</time>
      </trkpt>
      <trkpt lat="47.63335" lon="-0.67888">
        <ele>32.82</ele>
        <time>2014-11-09T09:39:53Z</time>
      </trkpt>
      <trkpt lat="47.63326" lon="-0.67867">
        <ele>32.82</ele>
        <time>2014-11-09T09:39:57Z</time>
      </trkpt>
      <trkpt lat="47.63319" lon="-0.67842">
        <ele>32.82</ele>
        <time>2014-11-09T09:40:01Z</time>
      </trkpt>
      <trkpt lat="47.63312" lon="-0.67817">
        <ele>32.82</ele>
        <time>2014-11-09T09:40:05Z</time>
      </trkpt>
      <trkpt lat="47.63292" lon="-0.67755">
        <ele>33.3</ele>
        <time>2014-11-09T09:40:17Z</time>
      </trkpt>
      <trkpt lat="47.63275" lon="-0.67679">
        <ele>33.78</ele>
        <time>2014-11-09T09:40:30Z</time>
      </trkpt>
      <trkpt lat="47.63265" lon="-0.67615">
        <ele>34.26</ele>
        <time>2014-11-09T09:40:42Z</time>
      </trkpt>
      <trkpt lat="47.63286" lon="-0.67522">
        <ele>34.74</ele>
        <time>2014-11-09T09:40:59Z</time>
      </trkpt>
      <trkpt lat="47.6331" lon="-0.67425">
        <ele>36.19</ele>
        <time>2014-11-09T09:41:18Z</time>
      </trkpt>
      <trkpt lat="47.63323" lon="-0.67369">
        <ele>35.71</ele>
        <time>2014-11-09T09:41:29Z</time>
      </trkpt>
      <trkpt lat="47.63298" lon="-0.67346">
        <ele>36.19</ele>
        <time>2014-11-09T09:41:38Z</time>
      </trkpt>
      <trkpt lat="47.63282" lon="-0.67333">
        <ele>36.67</ele>
        <time>2014-11-09T09:41:43Z</time>
      </trkpt>
      <trkpt lat="47.63286" lon="-0.67275">
        <ele>37.63</ele>
        <time>2014-11-09T09:41:55Z</time>
      </trkpt>
      <trkpt lat="47.63308" lon="-0.67203">
        <ele>38.11</ele>
        <time>2014-11-09T09:42:10Z</time>
      </trkpt>
      <trkpt lat="47.63314" lon="-0.67119">
        <ele>39.55</ele>
        <time>2014-11-09T09:42:25Z</time>
      </trkpt>
      <trkpt lat="47.63315" lon="-0.67056">
        <ele>39.55</ele>
        <time>2014-11-09T09:42:36Z</time>
      </trkpt>
      <trkpt lat="47.63345" lon="-0.67049">
        <ele>40.03</ele>
        <time>2014-11-09T09:42:45Z</time>
      </trkpt>
      <trkpt lat="47.6338" lon="-0.67033">
        <ele>40.03</ele>
        <time>2014-11-09T09:42:56Z</time>
      </trkpt>
      <trkpt lat="47.63378" lon="-0.66982">
        <ele>41.47</ele>
        <time>2014-11-09T09:43:06Z</time>
      </trkpt>
      <trkpt lat="47.63375" lon="-0.66906">
        <ele>43.4</ele>
        <time>2014-11-09T09:43:20Z</time>
      </trkpt>
      <trkpt lat="47.63374" lon="-0.66799">
        <ele>46.28</ele>
        <time>2014-11-09T09:43:40Z</time>
      </trkpt>
      <trkpt lat="47.63372" lon="-0.66754">
        <ele>47.24</ele>
        <time>2014-11-09T09:43:49Z</time>
      </trkpt>
      <trkpt lat="47.63384" lon="-0.66741">
        <ele>47.72</ele>
        <time>2014-11-09T09:43:54Z</time>
      </trkpt>
      <trkpt lat="47.63424" lon="-0.66739">
        <ele>48.68</ele>
        <time>2014-11-09T09:44:06Z</time>
      </trkpt>
      <trkpt lat="47.63442" lon="-0.66741">
        <ele>47.72</ele>
        <time>2014-11-09T09:44:10Z</time>
      </trkpt>
      <trkpt lat="47.63459" lon="-0.66744">
        <ele>47.72</ele>
        <time>2014-11-09T09:44:14Z</time>
      </trkpt>
      <trkpt lat="47.63467" lon="-0.66746">
        <ele>47.24</ele>
        <time>2014-11-09T09:44:16Z</time>
      </trkpt>
      <trkpt lat="47.63479" lon="-0.66729">
        <ele>48.2</ele>
        <time>2014-11-09T09:44:21Z</time>
      </trkpt>
      <trkpt lat="47.63492" lon="-0.66658">
        <ele>47.72</ele>
        <time>2014-11-09T09:44:35Z</time>
      </trkpt>
      <trkpt lat="47.63497" lon="-0.66596">
        <ele>48.68</ele>
        <time>2014-11-09T09:44:49Z</time>
      </trkpt>
      <trkpt lat="47.63499" lon="-0.66545">
        <ele>50.61</ele>
        <time>2014-11-09T09:45:02Z</time>
      </trkpt>
      <trkpt lat="47.63502" lon="-0.66486">
        <ele>53.49</ele>
        <time>2014-11-09T09:45:19Z</time>
      </trkpt>
      <trkpt lat="47.635" lon="-0.66475">
        <ele>53.49</ele>
        <time>2014-11-09T09:45:25Z</time>
      </trkpt>
      <trkpt lat="47.63504" lon="-0.66476">
        <ele>53.49</ele>
        <time>2014-11-09T09:45:27Z</time>
      </trkpt>
      <trkpt lat="47.63502" lon="-0.66482">
        <ele>53.49</ele>
        <time>2014-11-09T09:45:34Z</time>
      </trkpt>
      <trkpt lat="47.63501" lon="-0.66484">
        <ele>53.01</ele>
        <time>2014-11-09T09:45:59Z</time>
      </trkpt>
      <trkpt lat="47.63501" lon="-0.66483">
        <ele>53.49</ele>
        <time>2014-11-09T09:46:20Z</time>
      </trkpt>
      <trkpt lat="47.635" lon="-0.66484">
        <ele>53.49</ele>
        <time>2014-11-09T09:46:38Z</time>
      </trkpt>
      <trkpt lat="47.63503" lon="-0.66485">
        <ele>53.49</ele>
        <time>2014-11-09T09:46:53Z</time>
      </trkpt>
      <trkpt lat="47.63506" lon="-0.66483">
        <ele>53.49</ele>
        <time>2014-11-09T09:47:24Z</time>
      </trkpt>
      <trkpt lat="47.63504" lon="-0.66484">
        <ele>53.49</ele>
        <time>2014-11-09T09:47:58Z</time>
      </trkpt>
      <trkpt lat="47.63504" lon="-0.66486">
        <ele>53.01</ele>
        <time>2014-11-09T09:48:29Z</time>
      </trkpt>
      <trkpt lat="47.63505" lon="-0.66488">
        <ele>53.01</ele>
        <time>2014-11-09T09:49:06Z</time>
      </trkpt>
      <trkpt lat="47.63505" lon="-0.66487">
        <ele>53.97</ele>
        <time>2014-11-09T09:49:43Z</time>
      </trkpt>
      <trkpt lat="47.63503" lon="-0.66489">
        <ele>53.01</ele>
        <time>2014-11-09T09:50:22Z</time>
      </trkpt>
      <trkpt lat="47.63502" lon="-0.66485">
        <ele>53.49</ele>
        <time>2014-11-09T09:50:31Z</time>
      </trkpt>
      <trkpt lat="47.63502" lon="-0.66484">
        <ele>53.49</ele>
        <time>2014-11-09T09:50:54Z</time>
      </trkpt>
      <trkpt lat="47.63503" lon="-0.66482">
        <ele>53.97</ele>
        <time>2014-11-09T09:51:05Z</time>
      </trkpt>
      <trkpt lat="47.63481" lon="-0.66476">
        <ele>53.97</ele>
        <time>2014-11-09T09:51:16Z</time>
      </trkpt>
      <trkpt lat="47.63432" lon="-0.66467">
        <ele>55.41</ele>
        <time>2014-11-09T09:51:32Z</time>
      </trkpt>
      <trkpt lat="47.63376" lon="-0.66475">
        <ele>54.45</ele>
        <time>2014-11-09T09:51:45Z</time>
      </trkpt>
      <trkpt lat="47.63342" lon="-0.66485">
        <ele>54.45</ele>
        <time>2014-11-09T09:51:52Z</time>
      </trkpt>
      <trkpt lat="47.63255" lon="-0.66508">
        <ele>53.01</ele>
        <time>2014-11-09T09:52:08Z</time>
      </trkpt>
      <trkpt lat="47.63156" lon="-0.665">
        <ele>53.01</ele>
        <time>2014-11-09T09:52:26Z</time>
      </trkpt>
      <trkpt lat="47.63126" lon="-0.66498">
        <ele>53.01</ele>
        <time>2014-11-09T09:52:31Z</time>
      </trkpt>
      <trkpt lat="47.63057" lon="-0.66547">
        <ele>52.05</ele>
        <time>2014-11-09T09:52:44Z</time>
      </trkpt>
      <trkpt lat="47.63049" lon="-0.66558">
        <ele>51.09</ele>
        <time>2014-11-09T09:52:46Z</time>
      </trkpt>
      <trkpt lat="47.63037" lon="-0.66535">
        <ele>51.57</ele>
        <time>2014-11-09T09:52:52Z</time>
      </trkpt>
      <trkpt lat="47.63039" lon="-0.66506">
        <ele>52.53</ele>
        <time>2014-11-09T09:52:56Z</time>
      </trkpt>
      <trkpt lat="47.63049" lon="-0.66447">
        <ele>53.49</ele>
        <time>2014-11-09T09:53:04Z</time>
      </trkpt>
      <trkpt lat="47.63035" lon="-0.66389">
        <ele>54.93</ele>
        <time>2014-11-09T09:53:14Z</time>
      </trkpt>
      <trkpt lat="47.6303" lon="-0.66387">
        <ele>55.41</ele>
        <time>2014-11-09T09:53:15Z</time>
      </trkpt>
      <trkpt lat="47.62998" lon="-0.66373">
        <ele>55.41</ele>
        <time>2014-11-09T09:53:21Z</time>
      </trkpt>
      <trkpt lat="47.62954" lon="-0.66318">
        <ele>55.41</ele>
        <time>2014-11-09T09:53:32Z</time>
      </trkpt>
      <trkpt lat="47.62925" lon="-0.66289">
        <ele>55.89</ele>
        <time>2014-11-09T09:53:40Z</time>
      </trkpt>
      <trkpt lat="47.62891" lon="-0.66255">
        <ele>54.45</ele>
        <time>2014-11-09T09:53:49Z</time>
      </trkpt>
      <trkpt lat="47.62882" lon="-0.66246">
        <ele>54.93</ele>
        <time>2014-11-09T09:53:51Z</time>
      </trkpt>
      <trkpt lat="47.62835" lon="-0.66192">
        <ele>54.45</ele>
        <time>2014-11-09T09:54:03Z</time>
      </trkpt>
      <trkpt lat="47.62816" lon="-0.66162">
        <ele>53.97</ele>
        <time>2014-11-09T09:54:09Z</time>
      </trkpt>
      <trkpt lat="47.62784" lon="-0.66107">
        <ele>55.89</ele>
        <time>2014-11-09T09:54:22Z</time>
      </trkpt>
      <trkpt lat="47.62765" lon="-0.66057">
        <ele>57.34</ele>
        <time>2014-11-09T09:54:35Z</time>
      </trkpt>
      <trkpt lat="47.62751" lon="-0.66009">
        <ele>58.78</ele>
        <time>2014-11-09T09:54:48Z</time>
      </trkpt>
      <trkpt lat="47.62732" lon="-0.65938">
        <ele>61.18</ele>
        <time>2014-11-09T09:55:03Z</time>
      </trkpt>
      <trkpt lat="47.62702" lon="-0.65896">
        <ele>61.66</ele>
        <time>2014-11-09T09:55:16Z</time>
      </trkpt>
      <trkpt lat="47.62692" lon="-0.6588">
        <ele>61.66</ele>
        <time>2014-11-09T09:55:21Z</time>
      </trkpt>
      <trkpt lat="47.62682" lon="-0.6588">
        <ele>61.66</ele>
        <time>2014-11-09T09:55:25Z</time>
      </trkpt>
      <trkpt lat="47.62657" lon="-0.65921">
        <ele>60.7</ele>
        <time>2014-11-09T09:55:35Z</time>
      </trkpt>
      <trkpt lat="47.62644" lon="-0.65947">
        <ele>59.74</ele>
        <time>2014-11-09T09:55:40Z</time>
      </trkpt>
      <trkpt lat="47.62622" lon="-0.66035">
        <ele>56.37</ele>
        <time>2014-11-09T09:55:54Z</time>
      </trkpt>
      <trkpt lat="47.62611" lon="-0.66075">
        <ele>55.89</ele>
        <time>2014-11-09T09:56:01Z</time>
      </trkpt>
      <trkpt lat="47.62593" lon="-0.66121">
        <ele>54.45</ele>
        <time>2014-11-09T09:56:10Z</time>
      </trkpt>
      <trkpt lat="47.62575" lon="-0.66213">
        <ele>54.45</ele>
        <time>2014-11-09T09:56:23Z</time>
      </trkpt>
      <trkpt lat="47.6257" lon="-0.66241">
        <ele>53.97</ele>
        <time>2014-11-09T09:56:27Z</time>
      </trkpt>
      <trkpt lat="47.62558" lon="-0.6626">
        <ele>52.53</ele>
        <time>2014-11-09T09:56:31Z</time>
      </trkpt>
      <trkpt lat="47.62544" lon="-0.66263">
        <ele>53.01</ele>
        <time>2014-11-09T09:56:34Z</time>
      </trkpt>
      <trkpt lat="47.62489" lon="-0.66264">
        <ele>53.49</ele>
        <time>2014-11-09T09:56:47Z</time>
      </trkpt>
      <trkpt lat="47.62481" lon="-0.66264">
        <ele>53.49</ele>
        <time>2014-11-09T09:56:49Z</time>
      </trkpt>
      <trkpt lat="47.62452" lon="-0.66272">
        <ele>54.45</ele>
        <time>2014-11-09T09:56:56Z</time>
      </trkpt>
      <trkpt lat="47.62428" lon="-0.66255">
        <ele>54.45</ele>
        <time>2014-11-09T09:57:03Z</time>
      </trkpt>
      <trkpt lat="47.62419" lon="-0.66223">
        <ele>55.89</ele>
        <time>2014-11-09T09:57:08Z</time>
      </trkpt>
      <trkpt lat="47.62393" lon="-0.66191">
        <ele>56.86</ele>
        <time>2014-11-09T09:57:16Z</time>
      </trkpt>
      <trkpt lat="47.6237" lon="-0.66189">
        <ele>57.34</ele>
        <time>2014-11-09T09:57:21Z</time>
      </trkpt>
      <trkpt lat="47.62286" lon="-0.66191">
        <ele>59.26</ele>
        <time>2014-11-09T09:57:39Z</time>
      </trkpt>
      <trkpt lat="47.62196" lon="-0.66191">
        <ele>60.7</ele>
        <time>2014-11-09T09:57:58Z</time>
      </trkpt>
      <trkpt lat="47.62147" lon="-0.6619">
        <ele>60.7</ele>
        <time>2014-11-09T09:58:08Z</time>
      </trkpt>
      <trkpt lat="47.62141" lon="-0.66162">
        <ele>60.7</ele>
        <time>2014-11-09T09:58:14Z</time>
      </trkpt>
      <trkpt lat="47.62152" lon="-0.6611">
        <ele>61.18</ele>
        <time>2014-11-09T09:58:22Z</time>
      </trkpt>
      <trkpt lat="47.62156" lon="-0.66084">
        <ele>61.66</ele>
        <time>2014-11-09T09:58:26Z</time>
      </trkpt>
      <trkpt lat="47.62163" lon="-0.66045">
        <ele>62.14</ele>
        <time>2014-11-09T09:58:32Z</time>
      </trkpt>
      <trkpt lat="47.62164" lon="-0.66018">
        <ele>62.14</ele>
        <time>2014-11-09T09:58:36Z</time>
      </trkpt>
      <trkpt lat="47.62161" lon="-0.65957">
        <ele>62.14</ele>
        <time>2014-11-09T09:58:45Z</time>
      </trkpt>
      <trkpt lat="47.62162" lon="-0.65943">
        <ele>62.14</ele>
        <time>2014-11-09T09:58:47Z</time>
      </trkpt>
      <trkpt lat="47.62179" lon="-0.65863">
        <ele>62.62</ele>
        <time>2014-11-09T09:58:59Z</time>
      </trkpt>
      <trkpt lat="47.62191" lon="-0.65812">
        <ele>62.62</ele>
        <time>2014-11-09T09:59:07Z</time>
      </trkpt>
      <trkpt lat="47.6222" lon="-0.65703">
        <ele>62.14</ele>
        <time>2014-11-09T09:59:24Z</time>
      </trkpt>
      <trkpt lat="47.62224" lon="-0.65684">
        <ele>62.62</ele>
        <time>2014-11-09T09:59:27Z</time>
      </trkpt>
      <trkpt lat="47.62238" lon="-0.65622">
        <ele>62.62</ele>
        <time>2014-11-09T09:59:38Z</time>
      </trkpt>
      <trkpt lat="47.62254" lon="-0.65599">
        <ele>62.62</ele>
        <time>2014-11-09T09:59:43Z</time>
      </trkpt>
      <trkpt lat="47.62264" lon="-0.65569">
        <ele>62.62</ele>
        <time>2014-11-09T09:59:48Z</time>
      </trkpt>
      <trkpt lat="47.62267" lon="-0.65555">
        <ele>63.1</ele>
        <time>2014-11-09T09:59:50Z</time>
      </trkpt>
      <trkpt lat="47.623" lon="-0.65423">
        <ele>63.1</ele>
        <time>2014-11-09T10:00:10Z</time>
      </trkpt>
      <trkpt lat="47.62311" lon="-0.65381">
        <ele>62.62</ele>
        <time>2014-11-09T10:00:17Z</time>
      </trkpt>
      <trkpt lat="47.62301" lon="-0.65373">
        <ele>62.62</ele>
        <time>2014-11-09T10:00:21Z</time>
      </trkpt>
      <trkpt lat="47.62244" lon="-0.65369">
        <ele>62.62</ele>
        <time>2014-11-09T10:00:32Z</time>
      </trkpt>
      <trkpt lat="47.62168" lon="-0.6535">
        <ele>62.14</ele>
        <time>2014-11-09T10:00:47Z</time>
      </trkpt>
      <trkpt lat="47.62142" lon="-0.6535">
        <ele>61.66</ele>
        <time>2014-11-09T10:00:52Z</time>
      </trkpt>
      <trkpt lat="47.62105" lon="-0.65343">
        <ele>61.66</ele>
        <time>2014-11-09T10:00:59Z</time>
      </trkpt>
      <trkpt lat="47.62049" lon="-0.65333">
        <ele>60.7</ele>
        <time>2014-11-09T10:01:09Z</time>
      </trkpt>
      <trkpt lat="47.62012" lon="-0.65302">
        <ele>59.26</ele>
        <time>2014-11-09T10:01:16Z</time>
      </trkpt>
      <trkpt lat="47.61995" lon="-0.65285">
        <ele>57.82</ele>
        <time>2014-11-09T10:01:20Z</time>
      </trkpt>
      <trkpt lat="47.61977" lon="-0.6526">
        <ele>56.86</ele>
        <time>2014-11-09T10:01:25Z</time>
      </trkpt>
      <trkpt lat="47.61928" lon="-0.65186">
        <ele>55.89</ele>
        <time>2014-11-09T10:01:38Z</time>
      </trkpt>
      <trkpt lat="47.61922" lon="-0.65174">
        <ele>55.41</ele>
        <time>2014-11-09T10:01:40Z</time>
      </trkpt>
      <trkpt lat="47.61902" lon="-0.65111">
        <ele>54.45</ele>
        <time>2014-11-09T10:01:51Z</time>
      </trkpt>
      <trkpt lat="47.61922" lon="-0.65048">
        <ele>54.93</ele>
        <time>2014-11-09T10:02:04Z</time>
      </trkpt>
      <trkpt lat="47.61956" lon="-0.64993">
        <ele>56.86</ele>
        <time>2014-11-09T10:02:18Z</time>
      </trkpt>
      <trkpt lat="47.61997" lon="-0.64962">
        <ele>56.86</ele>
        <time>2014-11-09T10:02:32Z</time>
      </trkpt>
      <trkpt lat="47.6201" lon="-0.64953">
        <ele>57.34</ele>
        <time>2014-11-09T10:02:35Z</time>
      </trkpt>
      <trkpt lat="47.62031" lon="-0.6493">
        <ele>56.86</ele>
        <time>2014-11-09T10:02:40Z</time>
      </trkpt>
      <trkpt lat="47.62042" lon="-0.64911">
        <ele>57.34</ele>
        <time>2014-11-09T10:02:43Z</time>
      </trkpt>
      <trkpt lat="47.62063" lon="-0.64837">
        <ele>55.89</ele>
        <time>2014-11-09T10:02:52Z</time>
      </trkpt>
      <trkpt lat="47.62051" lon="-0.64733">
        <ele>53.97</ele>
        <time>2014-11-09T10:03:03Z</time>
      </trkpt>
      <trkpt lat="47.62002" lon="-0.64567">
        <ele>52.05</ele>
        <time>2014-11-09T10:03:20Z</time>
      </trkpt>
      <trkpt lat="47.61955" lon="-0.64416">
        <ele>50.13</ele>
        <time>2014-11-09T10:03:36Z</time>
      </trkpt>
      <trkpt lat="47.61899" lon="-0.643">
        <ele>50.13</ele>
        <time>2014-11-09T10:03:50Z</time>
      </trkpt>
      <trkpt lat="47.61895" lon="-0.64293">
        <ele>51.09</ele>
        <time>2014-11-09T10:03:51Z</time>
      </trkpt>
      <trkpt lat="47.61851" lon="-0.64216">
        <ele>53.49</ele>
        <time>2014-11-09T10:04:00Z</time>
      </trkpt>
      <trkpt lat="47.61832" lon="-0.64184">
        <ele>55.41</ele>
        <time>2014-11-09T10:04:04Z</time>
      </trkpt>
      <trkpt lat="47.61801" lon="-0.64145">
        <ele>56.86</ele>
        <time>2014-11-09T10:04:12Z</time>
      </trkpt>
      <trkpt lat="47.61751" lon="-0.64105">
        <ele>59.26</ele>
        <time>2014-11-09T10:04:27Z</time>
      </trkpt>
      <trkpt lat="47.61724" lon="-0.6408">
        <ele>60.7</ele>
        <time>2014-11-09T10:04:38Z</time>
      </trkpt>
      <trkpt lat="47.61682" lon="-0.64026">
        <ele>61.66</ele>
        <time>2014-11-09T10:04:53Z</time>
      </trkpt>
      <trkpt lat="47.61646" lon="-0.63957">
        <ele>62.14</ele>
        <time>2014-11-09T10:05:08Z</time>
      </trkpt>
      <trkpt lat="47.6163" lon="-0.63922">
        <ele>62.62</ele>
        <time>2014-11-09T10:05:14Z</time>
      </trkpt>
      <trkpt lat="47.61592" lon="-0.6385">
        <ele>62.62</ele>
        <time>2014-11-09T10:05:29Z</time>
      </trkpt>
      <trkpt lat="47.61561" lon="-0.63789">
        <ele>63.1</ele>
        <time>2014-11-09T10:05:41Z</time>
      </trkpt>
      <trkpt lat="47.61555" lon="-0.63777">
        <ele>63.1</ele>
        <time>2014-11-09T10:05:43Z</time>
      </trkpt>
      <trkpt lat="47.61514" lon="-0.63689">
        <ele>62.62</ele>
        <time>2014-11-09T10:05:56Z</time>
      </trkpt>
      <trkpt lat="47.61494" lon="-0.63658">
        <ele>62.14</ele>
        <time>2014-11-09T10:06:01Z</time>
      </trkpt>
      <trkpt lat="47.6147" lon="-0.63621">
        <ele>62.62</ele>
        <time>2014-11-09T10:06:08Z</time>
      </trkpt>
      <trkpt lat="47.61383" lon="-0.63526">
        <ele>61.18</ele>
        <time>2014-11-09T10:06:25Z</time>
      </trkpt>
      <trkpt lat="47.61355" lon="-0.63498">
        <ele>60.22</ele>
        <time>2014-11-09T10:06:30Z</time>
      </trkpt>
      <trkpt lat="47.61332" lon="-0.63466">
        <ele>60.22</ele>
        <time>2014-11-09T10:06:35Z</time>
      </trkpt>
      <trkpt lat="47.61297" lon="-0.63421">
        <ele>61.18</ele>
        <time>2014-11-09T10:06:43Z</time>
      </trkpt>
      <trkpt lat="47.61289" lon="-0.63409">
        <ele>61.18</ele>
        <time>2014-11-09T10:06:45Z</time>
      </trkpt>
      <trkpt lat="47.61257" lon="-0.63368">
        <ele>61.66</ele>
        <time>2014-11-09T10:06:53Z</time>
      </trkpt>
      <trkpt lat="47.61208" lon="-0.63299">
        <ele>60.22</ele>
        <time>2014-11-09T10:07:05Z</time>
      </trkpt>
      <trkpt lat="47.61197" lon="-0.63282">
        <ele>60.7</ele>
        <time>2014-11-09T10:07:08Z</time>
      </trkpt>
      <trkpt lat="47.61187" lon="-0.63268">
        <ele>60.22</ele>
        <time>2014-11-09T10:07:11Z</time>
      </trkpt>
      <trkpt lat="47.61193" lon="-0.63233">
        <ele>61.18</ele>
        <time>2014-11-09T10:07:17Z</time>
      </trkpt>
      <trkpt lat="47.61204" lon="-0.63209">
        <ele>61.18</ele>
        <time>2014-11-09T10:07:21Z</time>
      </trkpt>
      <trkpt lat="47.6125" lon="-0.63118">
        <ele>61.18</ele>
        <time>2014-11-09T10:07:37Z</time>
      </trkpt>
      <trkpt lat="47.61271" lon="-0.63072">
        <ele>61.18</ele>
        <time>2014-11-09T10:07:45Z</time>
      </trkpt>
      <trkpt lat="47.61266" lon="-0.63042">
        <ele>61.18</ele>
        <time>2014-11-09T10:07:50Z</time>
      </trkpt>
      <trkpt lat="47.61205" lon="-0.62958">
        <ele>62.14</ele>
        <time>2014-11-09T10:08:07Z</time>
      </trkpt>
      <trkpt lat="47.6114" lon="-0.62879">
        <ele>62.62</ele>
        <time>2014-11-09T10:08:23Z</time>
      </trkpt>
      <trkpt lat="47.61074" lon="-0.62791">
        <ele>62.62</ele>
        <time>2014-11-09T10:08:39Z</time>
      </trkpt>
      <trkpt lat="47.61039" lon="-0.62746">
        <ele>62.62</ele>
        <time>2014-11-09T10:08:47Z</time>
      </trkpt>
      <trkpt lat="47.60958" lon="-0.62643">
        <ele>62.14</ele>
        <time>2014-11-09T10:09:05Z</time>
      </trkpt>
      <trkpt lat="47.60889" lon="-0.62555">
        <ele>60.22</ele>
        <time>2014-11-09T10:09:20Z</time>
      </trkpt>
      <trkpt lat="47.60852" lon="-0.62508">
        <ele>60.7</ele>
        <time>2014-11-09T10:09:29Z</time>
      </trkpt>
      <trkpt lat="47.60843" lon="-0.62485">
        <ele>60.7</ele>
        <time>2014-11-09T10:09:33Z</time>
      </trkpt>
      <trkpt lat="47.6083" lon="-0.62475">
        <ele>61.66</ele>
        <time>2014-11-09T10:09:37Z</time>
      </trkpt>
      <trkpt lat="47.60821" lon="-0.62478">
        <ele>61.66</ele>
        <time>2014-11-09T10:09:39Z</time>
      </trkpt>
      <trkpt lat="47.60746" lon="-0.62475">
        <ele>61.18</ele>
        <time>2014-11-09T10:09:54Z</time>
      </trkpt>
      <trkpt lat="47.60695" lon="-0.62459">
        <ele>61.18</ele>
        <time>2014-11-09T10:10:04Z</time>
      </trkpt>
      <trkpt lat="47.60684" lon="-0.62457">
        <ele>60.7</ele>
        <time>2014-11-09T10:10:06Z</time>
      </trkpt>
      <trkpt lat="47.60612" lon="-0.62459">
        <ele>61.18</ele>
        <time>2014-11-09T10:10:21Z</time>
      </trkpt>
      <trkpt lat="47.60586" lon="-0.62458">
        <ele>60.7</ele>
        <time>2014-11-09T10:10:27Z</time>
      </trkpt>
      <trkpt lat="47.60503" lon="-0.62466">
        <ele>61.18</ele>
        <time>2014-11-09T10:10:45Z</time>
      </trkpt>
      <trkpt lat="47.60489" lon="-0.62468">
        <ele>60.7</ele>
        <time>2014-11-09T10:10:48Z</time>
      </trkpt>
      <trkpt lat="47.60428" lon="-0.62472">
        <ele>60.7</ele>
        <time>2014-11-09T10:11:01Z</time>
      </trkpt>
      <trkpt lat="47.60362" lon="-0.62474">
        <ele>60.7</ele>
        <time>2014-11-09T10:11:15Z</time>
      </trkpt>
      <trkpt lat="47.60277" lon="-0.62471">
        <ele>58.78</ele>
        <time>2014-11-09T10:11:30Z</time>
      </trkpt>
      <trkpt lat="47.60271" lon="-0.62471">
        <ele>58.78</ele>
        <time>2014-11-09T10:11:31Z</time>
      </trkpt>
      <trkpt lat="47.6024" lon="-0.62456">
        <ele>57.82</ele>
        <time>2014-11-09T10:11:41Z</time>
      </trkpt>
      <trkpt lat="47.60244" lon="-0.62411">
        <ele>58.3</ele>
        <time>2014-11-09T10:11:53Z</time>
      </trkpt>
      <trkpt lat="47.60246" lon="-0.62365">
        <ele>59.26</ele>
        <time>2014-11-09T10:12:01Z</time>
      </trkpt>
      <trkpt lat="47.60281" lon="-0.62279">
        <ele>60.7</ele>
        <time>2014-11-09T10:12:17Z</time>
      </trkpt>
      <trkpt lat="47.60329" lon="-0.62156">
        <ele>62.14</ele>
        <time>2014-11-09T10:12:37Z</time>
      </trkpt>
      <trkpt lat="47.60345" lon="-0.62108">
        <ele>61.18</ele>
        <time>2014-11-09T10:12:44Z</time>
      </trkpt>
      <trkpt lat="47.60375" lon="-0.62019">
        <ele>60.7</ele>
        <time>2014-11-09T10:12:58Z</time>
      </trkpt>
      <trkpt lat="47.60391" lon="-0.61966">
        <ele>60.7</ele>
        <time>2014-11-09T10:13:10Z</time>
      </trkpt>
      <trkpt lat="47.60393" lon="-0.61955">
        <ele>60.7</ele>
        <time>2014-11-09T10:13:22Z</time>
      </trkpt>
      <trkpt lat="47.60392" lon="-0.61953">
        <ele>61.18</ele>
        <time>2014-11-09T10:13:24Z</time>
      </trkpt>
      <trkpt lat="47.60392" lon="-0.61948">
        <ele>61.18</ele>
        <time>2014-11-09T10:13:35Z</time>
      </trkpt>
      <trkpt lat="47.60391" lon="-0.61948">
        <ele>61.66</ele>
        <time>2014-11-09T10:14:09Z</time>
      </trkpt>
      <trkpt lat="47.60392" lon="-0.61947">
        <ele>61.18</ele>
        <time>2014-11-09T10:14:43Z</time>
      </trkpt>
      <trkpt lat="47.60391" lon="-0.61947">
        <ele>60.7</ele>
        <time>2014-11-09T10:15:21Z</time>
      </trkpt>
      <trkpt lat="47.60391" lon="-0.61946">
        <ele>61.18</ele>
        <time>2014-11-09T10:15:46Z</time>
      </trkpt>
      <trkpt lat="47.6039" lon="-0.61945">
        <ele>60.22</ele>
        <time>2014-11-09T10:16:01Z</time>
      </trkpt>
      <trkpt lat="47.60391" lon="-0.61945">
        <ele>60.22</ele>
        <time>2014-11-09T10:16:42Z</time>
      </trkpt>
      <trkpt lat="47.6039" lon="-0.61945">
        <ele>59.74</ele>
        <time>2014-11-09T10:17:21Z</time>
      </trkpt>
      <trkpt lat="47.6039" lon="-0.61944">
        <ele>60.7</ele>
        <time>2014-11-09T10:18:00Z</time>
      </trkpt>
      <trkpt lat="47.6039" lon="-0.61945">
        <ele>59.74</ele>
        <time>2014-11-09T10:18:47Z</time>
      </trkpt>
      <trkpt lat="47.60392" lon="-0.61945">
        <ele>60.22</ele>
        <time>2014-11-09T10:19:30Z</time>
      </trkpt>
      <trkpt lat="47.60392" lon="-0.61945">
        <ele>60.22</ele>
        <time>2014-11-09T10:20:12Z</time>
      </trkpt>
      <trkpt lat="47.6039" lon="-0.61945">
        <ele>59.74</ele>
        <time>2014-11-09T10:20:52Z</time>
      </trkpt>
      <trkpt lat="47.60389" lon="-0.61945">
        <ele>59.74</ele>
        <time>2014-11-09T10:21:24Z</time>
      </trkpt>
      <trkpt lat="47.6039" lon="-0.61945">
        <ele>60.22</ele>
        <time>2014-11-09T10:22:05Z</time>
      </trkpt>
      <trkpt lat="47.6039" lon="-0.61945">
        <ele>59.74</ele>
        <time>2014-11-09T10:22:51Z</time>
      </trkpt>
      <trkpt lat="47.6039" lon="-0.61945">
        <ele>59.26</ele>
        <time>2014-11-09T10:23:33Z</time>
      </trkpt>
      <trkpt lat="47.60391" lon="-0.61945">
        <ele>59.74</ele>
        <time>2014-11-09T10:24:11Z</time>
      </trkpt>
      <trkpt lat="47.60391" lon="-0.61945">
        <ele>59.26</ele>
        <time>2014-11-09T10:24:51Z</time>
      </trkpt>
      <trkpt lat="47.60391" lon="-0.61945">
        <ele>59.26</ele>
        <time>2014-11-09T10:25:36Z</time>
      </trkpt>
      <trkpt lat="47.60393" lon="-0.61944">
        <ele>59.26</ele>
        <time>2014-11-09T10:26:07Z</time>
      </trkpt>
      <trkpt lat="47.60395" lon="-0.6194">
        <ele>60.22</ele>
        <time>2014-11-09T10:26:17Z</time>
      </trkpt>
      <trkpt lat="47.60405" lon="-0.61892">
        <ele>60.22</ele>
        <time>2014-11-09T10:26:30Z</time>
      </trkpt>
      <trkpt lat="47.60422" lon="-0.61823">
        <ele>60.22</ele>
        <time>2014-11-09T10:26:41Z</time>
      </trkpt>
      <trkpt lat="47.60455" lon="-0.61712">
        <ele>60.22</ele>
        <time>2014-11-09T10:26:57Z</time>
      </trkpt>
      <trkpt lat="47.60483" lon="-0.61606">
        <ele>59.74</ele>
        <time>2014-11-09T10:27:12Z</time>
      </trkpt>
      <trkpt lat="47.6047" lon="-0.61565">
        <ele>59.26</ele>
        <time>2014-11-09T10:27:21Z</time>
      </trkpt>
      <trkpt lat="47.60388" lon="-0.61514">
        <ele>58.78</ele>
        <time>2014-11-09T10:27:39Z</time>
      </trkpt>
      <trkpt lat="47.60302" lon="-0.61466">
        <ele>59.26</ele>
        <time>2014-11-09T10:27:56Z</time>
      </trkpt>
      <trkpt lat="47.60211" lon="-0.61417">
        <ele>58.78</ele>
        <time>2014-11-09T10:28:12Z</time>
      </trkpt>
      <trkpt lat="47.6009" lon="-0.61348">
        <ele>58.3</ele>
        <time>2014-11-09T10:28:32Z</time>
      </trkpt>
      <trkpt lat="47.60006" lon="-0.613">
        <ele>58.78</ele>
        <time>2014-11-09T10:28:47Z</time>
      </trkpt>
      <trkpt lat="47.59938" lon="-0.6127">
        <ele>58.3</ele>
        <time>2014-11-09T10:28:58Z</time>
      </trkpt>
      <trkpt lat="47.5992" lon="-0.61257">
        <ele>58.3</ele>
        <time>2014-11-09T10:29:01Z</time>
      </trkpt>
      <trkpt lat="47.59894" lon="-0.6123">
        <ele>57.82</ele>
        <time>2014-11-09T10:29:06Z</time>
      </trkpt>
      <trkpt lat="47.5988" lon="-0.61211">
        <ele>57.82</ele>
        <time>2014-11-09T10:29:09Z</time>
      </trkpt>
      <trkpt lat="47.5985" lon="-0.61177">
        <ele>57.34</ele>
        <time>2014-11-09T10:29:15Z</time>
      </trkpt>
      <trkpt lat="47.59766" lon="-0.61163">
        <ele>56.86</ele>
        <time>2014-11-09T10:29:27Z</time>
      </trkpt>
      <trkpt lat="47.59734" lon="-0.61158">
        <ele>56.86</ele>
        <time>2014-11-09T10:29:32Z</time>
      </trkpt>
      <trkpt lat="47.59721" lon="-0.61171">
        <ele>56.37</ele>
        <time>2014-11-09T10:29:36Z</time>
      </trkpt>
      <trkpt lat="47.59707" lon="-0.61212">
        <ele>56.86</ele>
        <time>2014-11-09T10:29:42Z</time>
      </trkpt>
      <trkpt lat="47.59697" lon="-0.61231">
        <ele>57.34</ele>
        <time>2014-11-09T10:29:45Z</time>
      </trkpt>
      <trkpt lat="47.59679" lon="-0.61251">
        <ele>57.34</ele>
        <time>2014-11-09T10:29:49Z</time>
      </trkpt>
      <trkpt lat="47.59633" lon="-0.61294">
        <ele>57.34</ele>
        <time>2014-11-09T10:29:59Z</time>
      </trkpt>
      <trkpt lat="47.59568" lon="-0.6135">
        <ele>57.82</ele>
        <time>2014-11-09T10:30:12Z</time>
      </trkpt>
      <trkpt lat="47.59548" lon="-0.61368">
        <ele>57.82</ele>
        <time>2014-11-09T10:30:16Z</time>
      </trkpt>
      <trkpt lat="47.59528" lon="-0.61387">
        <ele>58.3</ele>
        <time>2014-11-09T10:30:20Z</time>
      </trkpt>
      <trkpt lat="47.59513" lon="-0.61403">
        <ele>58.3</ele>
        <time>2014-11-09T10:30:23Z</time>
      </trkpt>
      <trkpt lat="47.59459" lon="-0.61463">
        <ele>58.3</ele>
        <time>2014-11-09T10:30:34Z</time>
      </trkpt>
      <trkpt lat="47.5943" lon="-0.61505">
        <ele>57.82</ele>
        <time>2014-11-09T10:30:41Z</time>
      </trkpt>
      <trkpt lat="47.59408" lon="-0.61541">
        <ele>55.89</ele>
        <time>2014-11-09T10:30:48Z</time>
      </trkpt>
      <trkpt lat="47.59388" lon="-0.61521">
        <ele>55.89</ele>
        <time>2014-11-09T10:30:56Z</time>
      </trkpt>
      <trkpt lat="47.59381" lon="-0.61512">
        <ele>56.37</ele>
        <time>2014-11-09T10:30:58Z</time>
      </trkpt>
      <trkpt lat="47.5936" lon="-0.61496">
        <ele>55.89</ele>
        <time>2014-11-09T10:31:03Z</time>
      </trkpt>
      <trkpt lat="47.59302" lon="-0.61476">
        <ele>55.89</ele>
        <time>2014-11-09T10:31:16Z</time>
      </trkpt>
      <trkpt lat="47.59256" lon="-0.61465">
        <ele>55.89</ele>
        <time>2014-11-09T10:31:24Z</time>
      </trkpt>
      <trkpt lat="47.5923" lon="-0.61423">
        <ele>55.89</ele>
        <time>2014-11-09T10:31:32Z</time>
      </trkpt>
      <trkpt lat="47.59202" lon="-0.61328">
        <ele>56.37</ele>
        <time>2014-11-09T10:31:45Z</time>
      </trkpt>
      <trkpt lat="47.59182" lon="-0.61267">
        <ele>55.89</ele>
        <time>2014-11-09T10:31:53Z</time>
      </trkpt>
      <trkpt lat="47.59172" lon="-0.61227">
        <ele>54.93</ele>
        <time>2014-11-09T10:31:58Z</time>
      </trkpt>
      <trkpt lat="47.59164" lon="-0.61184">
        <ele>53.97</ele>
        <time>2014-11-09T10:32:03Z</time>
      </trkpt>
      <trkpt lat="47.59141" lon="-0.61173">
        <ele>53.01</ele>
        <time>2014-11-09T10:32:10Z</time>
      </trkpt>
      <trkpt lat="47.59113" lon="-0.61206">
        <ele>54.45</ele>
        <time>2014-11-09T10:32:21Z</time>
      </trkpt>
      <trkpt lat="47.59083" lon="-0.61238">
        <ele>55.41</ele>
        <time>2014-11-09T10:32:32Z</time>
      </trkpt>
      <trkpt lat="47.59057" lon="-0.6126">
        <ele>55.89</ele>
        <time>2014-11-09T10:32:39Z</time>
      </trkpt>
      <trkpt lat="47.58995" lon="-0.61295">
        <ele>54.93</ele>
        <time>2014-11-09T10:32:49Z</time>
      </trkpt>
      <trkpt lat="47.58976" lon="-0.61309">
        <ele>54.93</ele>
        <time>2014-11-09T10:32:53Z</time>
      </trkpt>
      <trkpt lat="47.58897" lon="-0.61343">
        <ele>53.49</ele>
        <time>2014-11-09T10:33:07Z</time>
      </trkpt>
      <trkpt lat="47.58881" lon="-0.61353">
        <ele>53.49</ele>
        <time>2014-11-09T10:33:10Z</time>
      </trkpt>
      <trkpt lat="47.58783" lon="-0.61417">
        <ele>51.57</ele>
        <time>2014-11-09T10:33:29Z</time>
      </trkpt>
      <trkpt lat="47.58766" lon="-0.61423">
        <ele>51.57</ele>
        <time>2014-11-09T10:33:32Z</time>
      </trkpt>
      <trkpt lat="47.58736" lon="-0.61426">
        <ele>49.65</ele>
        <time>2014-11-09T10:33:37Z</time>
      </trkpt>
      <trkpt lat="47.58652" lon="-0.61436">
        <ele>49.16</ele>
        <time>2014-11-09T10:33:52Z</time>
      </trkpt>
      <trkpt lat="47.58591" lon="-0.61439">
        <ele>49.65</ele>
        <time>2014-11-09T10:34:04Z</time>
      </trkpt>
      <trkpt lat="47.58557" lon="-0.61393">
        <ele>48.68</ele>
        <time>2014-11-09T10:34:14Z</time>
      </trkpt>
      <trkpt lat="47.5855" lon="-0.61277">
        <ele>45.32</ele>
        <time>2014-11-09T10:34:26Z</time>
      </trkpt>
      <trkpt lat="47.58544" lon="-0.6123">
        <ele>44.36</ele>
        <time>2014-11-09T10:34:30Z</time>
      </trkpt>
      <trkpt lat="47.58542" lon="-0.61217">
        <ele>43.4</ele>
        <time>2014-11-09T10:34:31Z</time>
      </trkpt>
      <trkpt lat="47.58508" lon="-0.61106">
        <ele>39.55</ele>
        <time>2014-11-09T10:34:41Z</time>
      </trkpt>
      <trkpt lat="47.58485" lon="-0.61097">
        <ele>39.55</ele>
        <time>2014-11-09T10:34:47Z</time>
      </trkpt>
      <trkpt lat="47.58418" lon="-0.6115">
        <ele>42.92</ele>
        <time>2014-11-09T10:35:04Z</time>
      </trkpt>
      <trkpt lat="47.58352" lon="-0.61191">
        <ele>44.36</ele>
        <time>2014-11-09T10:35:19Z</time>
      </trkpt>
      <trkpt lat="47.58309" lon="-0.61205">
        <ele>42.44</ele>
        <time>2014-11-09T10:35:31Z</time>
      </trkpt>
      <trkpt lat="47.58304" lon="-0.61208">
        <ele>42.44</ele>
        <time>2014-11-09T10:35:41Z</time>
      </trkpt>
      <trkpt lat="47.58304" lon="-0.61208">
        <ele>42.44</ele>
        <time>2014-11-09T10:36:07Z</time>
      </trkpt>
      <trkpt lat="47.5829" lon="-0.61221">
        <ele>42.44</ele>
        <time>2014-11-09T10:36:17Z</time>
      </trkpt>
      <trkpt lat="47.58285" lon="-0.61226">
        <ele>43.4</ele>
        <time>2014-11-09T10:36:19Z</time>
      </trkpt>
      <trkpt lat="47.58272" lon="-0.61219">
        <ele>42.44</ele>
        <time>2014-11-09T10:36:24Z</time>
      </trkpt>
      <trkpt lat="47.58258" lon="-0.61206">
        <ele>41.95</ele>
        <time>2014-11-09T10:36:28Z</time>
      </trkpt>
      <trkpt lat="47.58233" lon="-0.61187">
        <ele>41.95</ele>
        <time>2014-11-09T10:36:35Z</time>
      </trkpt>
      <trkpt lat="47.58216" lon="-0.61164">
        <ele>40.03</ele>
        <time>2014-11-09T10:36:41Z</time>
      </trkpt>
      <trkpt lat="47.58211" lon="-0.61152">
        <ele>39.07</ele>
        <time>2014-11-09T10:36:43Z</time>
      </trkpt>
      <trkpt lat="47.58177" lon="-0.61065">
        <ele>35.71</ele>
        <time>2014-11-09T10:36:54Z</time>
      </trkpt>
      <trkpt lat="47.58151" lon="-0.61002">
        <ele>32.82</ele>
        <time>2014-11-09T10:37:01Z</time>
      </trkpt>
      <trkpt lat="47.58124" lon="-0.60932">
        <ele>29.94</ele>
        <time>2014-11-09T10:37:08Z</time>
      </trkpt>
      <trkpt lat="47.58099" lon="-0.60851">
        <ele>26.09</ele>
        <time>2014-11-09T10:37:16Z</time>
      </trkpt>
      <trkpt lat="47.58069" lon="-0.60767">
        <ele>23.69</ele>
        <time>2014-11-09T10:37:26Z</time>
      </trkpt>
      <trkpt lat="47.58061" lon="-0.60714">
        <ele>22.73</ele>
        <time>2014-11-09T10:37:32Z</time>
      </trkpt>
      <trkpt lat="47.58063" lon="-0.60674">
        <ele>23.21</ele>
        <time>2014-11-09T10:37:37Z</time>
      </trkpt>
      <trkpt lat="47.58087" lon="-0.6065">
        <ele>24.65</ele>
        <time>2014-11-09T10:37:44Z</time>
      </trkpt>
      <trkpt lat="47.58106" lon="-0.60648">
        <ele>26.09</ele>
        <time>2014-11-09T10:37:49Z</time>
      </trkpt>
      <trkpt lat="47.58107" lon="-0.60632">
        <ele>28.02</ele>
        <time>2014-11-09T10:37:55Z</time>
      </trkpt>
      <trkpt lat="47.58096" lon="-0.60612">
        <ele>29.46</ele>
        <time>2014-11-09T10:38:02Z</time>
      </trkpt>
      <trkpt lat="47.58077" lon="-0.60571">
        <ele>32.82</ele>
        <time>2014-11-09T10:38:15Z</time>
      </trkpt>
      <trkpt lat="47.58044" lon="-0.60552">
        <ele>36.19</ele>
        <time>2014-11-09T10:38:29Z</time>
      </trkpt>
      <trkpt lat="47.58007" lon="-0.6054">
        <ele>39.07</ele>
        <time>2014-11-09T10:38:46Z</time>
      </trkpt>
      <trkpt lat="47.57983" lon="-0.60532">
        <ele>41.47</ele>
        <time>2014-11-09T10:38:59Z</time>
      </trkpt>
      <trkpt lat="47.57955" lon="-0.60527">
        <ele>43.4</ele>
        <time>2014-11-09T10:39:13Z</time>
      </trkpt>
      <trkpt lat="47.57929" lon="-0.60499">
        <ele>45.8</ele>
        <time>2014-11-09T10:39:29Z</time>
      </trkpt>
      <trkpt lat="47.57904" lon="-0.60466">
        <ele>48.2</ele>
        <time>2014-11-09T10:39:46Z</time>
      </trkpt>
      <trkpt lat="47.57878" lon="-0.60431">
        <ele>50.61</ele>
        <time>2014-11-09T10:40:01Z</time>
      </trkpt>
      <trkpt lat="47.57848" lon="-0.60384">
        <ele>51.09</ele>
        <time>2014-11-09T10:40:16Z</time>
      </trkpt>
      <trkpt lat="47.57809" lon="-0.60319">
        <ele>50.61</ele>
        <time>2014-11-09T10:40:31Z</time>
      </trkpt>
      <trkpt lat="47.57774" lon="-0.60241">
        <ele>51.57</ele>
        <time>2014-11-09T10:40:47Z</time>
      </trkpt>
      <trkpt lat="47.57741" lon="-0.60173">
        <ele>53.49</ele>
        <time>2014-11-09T10:41:03Z</time>
      </trkpt>
      <trkpt lat="47.5769" lon="-0.60098">
        <ele>54.45</ele>
        <time>2014-11-09T10:41:22Z</time>
      </trkpt>
      <trkpt lat="47.57643" lon="-0.60039">
        <ele>54.45</ele>
        <time>2014-11-09T10:41:38Z</time>
      </trkpt>
      <trkpt lat="47.57596" lon="-0.59982">
        <ele>53.97</ele>
        <time>2014-11-09T10:41:54Z</time>
      </trkpt>
      <trkpt lat="47.57553" lon="-0.59929">
        <ele>53.49</ele>
        <time>2014-11-09T10:42:11Z</time>
      </trkpt>
      <trkpt lat="47.57536" lon="-0.59941">
        <ele>52.53</ele>
        <time>2014-11-09T10:42:18Z</time>
      </trkpt>
      <trkpt lat="47.57523" lon="-0.59958">
        <ele>52.05</ele>
        <time>2014-11-09T10:42:22Z</time>
      </trkpt>
      <trkpt lat="47.57463" lon="-0.60024">
        <ele>48.68</ele>
        <time>2014-11-09T10:42:36Z</time>
      </trkpt>
      <trkpt lat="47.57457" lon="-0.60029">
        <ele>48.68</ele>
        <time>2014-11-09T10:42:37Z</time>
      </trkpt>
      <trkpt lat="47.57445" lon="-0.60039">
        <ele>47.24</ele>
        <time>2014-11-09T10:42:39Z</time>
      </trkpt>
      <trkpt lat="47.57432" lon="-0.6005">
        <ele>47.24</ele>
        <time>2014-11-09T10:42:41Z</time>
      </trkpt>
      <trkpt lat="47.57413" lon="-0.60054">
        <ele>45.32</ele>
        <time>2014-11-09T10:42:44Z</time>
      </trkpt>
      <trkpt lat="47.57402" lon="-0.60038">
        <ele>45.32</ele>
        <time>2014-11-09T10:42:47Z</time>
      </trkpt>
      <trkpt lat="47.57348" lon="-0.59937">
        <ele>46.76</ele>
        <time>2014-11-09T10:43:05Z</time>
      </trkpt>
      <trkpt lat="47.57328" lon="-0.59882">
        <ele>47.72</ele>
        <time>2014-11-09T10:43:15Z</time>
      </trkpt>
      <trkpt lat="47.57325" lon="-0.59871">
        <ele>47.24</ele>
        <time>2014-11-09T10:43:17Z</time>
      </trkpt>
      <trkpt lat="47.57322" lon="-0.59844">
        <ele>47.24</ele>
        <time>2014-11-09T10:43:21Z</time>
      </trkpt>
      <trkpt lat="47.57311" lon="-0.59785">
        <ele>48.2</ele>
        <time>2014-11-09T10:43:31Z</time>
      </trkpt>
      <trkpt lat="47.57293" lon="-0.59784">
        <ele>47.24</ele>
        <time>2014-11-09T10:43:36Z</time>
      </trkpt>
      <trkpt lat="47.5728" lon="-0.59794">
        <ele>46.28</ele>
        <time>2014-11-09T10:43:39Z</time>
      </trkpt>
      <trkpt lat="47.57257" lon="-0.59808">
        <ele>45.8</ele>
        <time>2014-11-09T10:43:44Z</time>
      </trkpt>
      <trkpt lat="47.57217" lon="-0.5984">
        <ele>44.36</ele>
        <time>2014-11-09T10:43:52Z</time>
      </trkpt>
      <trkpt lat="47.57176" lon="-0.59835">
        <ele>42.92</ele>
        <time>2014-11-09T10:44:00Z</time>
      </trkpt>
      <trkpt lat="47.57114" lon="-0.59765">
        <ele>43.4</ele>
        <time>2014-11-09T10:44:15Z</time>
      </trkpt>
      <trkpt lat="47.57033" lon="-0.59694">
        <ele>44.36</ele>
        <time>2014-11-09T10:44:32Z</time>
      </trkpt>
      <trkpt lat="47.56977" lon="-0.59609">
        <ele>44.36</ele>
        <time>2014-11-09T10:44:46Z</time>
      </trkpt>
      <trkpt lat="47.56966" lon="-0.59591">
        <ele>43.88</ele>
        <time>2014-11-09T10:44:50Z</time>
      </trkpt>
      <trkpt lat="47.56957" lon="-0.59596">
        <ele>43.4</ele>
        <time>2014-11-09T10:44:54Z</time>
      </trkpt>
      <trkpt lat="47.56923" lon="-0.59692">
        <ele>38.11</ele>
        <time>2014-11-09T10:45:08Z</time>
      </trkpt>
      <trkpt lat="47.5692" lon="-0.597">
        <ele>38.11</ele>
        <time>2014-11-09T10:45:09Z</time>
      </trkpt>
      <trkpt lat="47.56917" lon="-0.59707">
        <ele>45.32</ele>
        <time>2014-11-09T10:45:10Z</time>
      </trkpt>
      <trkpt lat="47.56915" lon="-0.59715">
        <ele>41.47</ele>
        <time>2014-11-09T10:45:11Z</time>
      </trkpt>
      <trkpt lat="47.56879" lon="-0.59833">
        <ele>40.51</ele>
        <time>2014-11-09T10:45:27Z</time>
      </trkpt>
      <trkpt lat="47.56854" lon="-0.59917">
        <ele>39.55</ele>
        <time>2014-11-09T10:45:38Z</time>
      </trkpt>
      <trkpt lat="47.56841" lon="-0.5995">
        <ele>39.07</ele>
        <time>2014-11-09T10:45:42Z</time>
      </trkpt>
      <trkpt lat="47.56799" lon="-0.60086">
        <ele>38.11</ele>
        <time>2014-11-09T10:45:58Z</time>
      </trkpt>
      <trkpt lat="47.56742" lon="-0.60205">
        <ele>38.59</ele>
        <time>2014-11-09T10:46:15Z</time>
      </trkpt>
      <trkpt lat="47.56737" lon="-0.60209">
        <ele>38.59</ele>
        <time>2014-11-09T10:46:16Z</time>
      </trkpt>
      <trkpt lat="47.56718" lon="-0.60217">
        <ele>39.07</ele>
        <time>2014-11-09T10:46:20Z</time>
      </trkpt>
      <trkpt lat="47.56634" lon="-0.60199">
        <ele>41.47</ele>
        <time>2014-11-09T10:46:37Z</time>
      </trkpt>
      <trkpt lat="47.56552" lon="-0.60192">
        <ele>41.95</ele>
        <time>2014-11-09T10:46:54Z</time>
      </trkpt>
      <trkpt lat="47.56482" lon="-0.60184">
        <ele>41.95</ele>
        <time>2014-11-09T10:47:08Z</time>
      </trkpt>
      <trkpt lat="47.5641" lon="-0.60185">
        <ele>41.95</ele>
        <time>2014-11-09T10:47:22Z</time>
      </trkpt>
      <trkpt lat="47.56351" lon="-0.60163">
        <ele>41.47</ele>
        <time>2014-11-09T10:47:33Z</time>
      </trkpt>
      <trkpt lat="47.56341" lon="-0.60158">
        <ele>41.47</ele>
        <time>2014-11-09T10:47:35Z</time>
      </trkpt>
      <trkpt lat="47.56319" lon="-0.60124">
        <ele>40.99</ele>
        <time>2014-11-09T10:47:41Z</time>
      </trkpt>
      <trkpt lat="47.56256" lon="-0.60095">
        <ele>40.51</ele>
        <time>2014-11-09T10:47:53Z</time>
      </trkpt>
      <trkpt lat="47.56174" lon="-0.60067">
        <ele>38.11</ele>
        <time>2014-11-09T10:48:07Z</time>
      </trkpt>
      <trkpt lat="47.56163" lon="-0.60064">
        <ele>38.11</ele>
        <time>2014-11-09T10:48:09Z</time>
      </trkpt>
      <trkpt lat="47.56146" lon="-0.60039">
        <ele>38.11</ele>
        <time>2014-11-09T10:48:14Z</time>
      </trkpt>
      <trkpt lat="47.56144" lon="-0.59997">
        <ele>38.59</ele>
        <time>2014-11-09T10:48:19Z</time>
      </trkpt>
      <trkpt lat="47.56139" lon="-0.59895">
        <ele>38.11</ele>
        <time>2014-11-09T10:48:32Z</time>
      </trkpt>
      <trkpt lat="47.56139" lon="-0.59874">
        <ele>38.59</ele>
        <time>2014-11-09T10:48:37Z</time>
      </trkpt>
      <trkpt lat="47.56138" lon="-0.59838">
        <ele>38.59</ele>
        <time>2014-11-09T10:48:42Z</time>
      </trkpt>
      <trkpt lat="47.56151" lon="-0.59686">
        <ele>36.67</ele>
        <time>2014-11-09T10:48:59Z</time>
      </trkpt>
      <trkpt lat="47.56186" lon="-0.59549">
        <ele>36.67</ele>
        <time>2014-11-09T10:49:15Z</time>
      </trkpt>
      <trkpt lat="47.56223" lon="-0.59428">
        <ele>37.63</ele>
        <time>2014-11-09T10:49:31Z</time>
      </trkpt>
      <trkpt lat="47.56257" lon="-0.59315">
        <ele>39.07</ele>
        <time>2014-11-09T10:49:46Z</time>
      </trkpt>
      <trkpt lat="47.56258" lon="-0.59274">
        <ele>39.55</ele>
        <time>2014-11-09T10:49:51Z</time>
      </trkpt>
      <trkpt lat="47.56255" lon="-0.59235">
        <ele>40.51</ele>
        <time>2014-11-09T10:49:56Z</time>
      </trkpt>
      <trkpt lat="47.56254" lon="-0.59132">
        <ele>42.92</ele>
        <time>2014-11-09T10:50:10Z</time>
      </trkpt>
      <trkpt lat="47.56254" lon="-0.59126">
        <ele>42.92</ele>
        <time>2014-11-09T10:50:11Z</time>
      </trkpt>
      <trkpt lat="47.56242" lon="-0.59114">
        <ele>42.92</ele>
        <time>2014-11-09T10:50:15Z</time>
      </trkpt>
      <trkpt lat="47.5615" lon="-0.59116">
        <ele>41.47</ele>
        <time>2014-11-09T10:50:33Z</time>
      </trkpt>
      <trkpt lat="47.56061" lon="-0.59118">
        <ele>40.03</ele>
        <time>2014-11-09T10:50:47Z</time>
      </trkpt>
      <trkpt lat="47.56035" lon="-0.59117">
        <ele>40.51</ele>
        <time>2014-11-09T10:50:51Z</time>
      </trkpt>
      <trkpt lat="47.55921" lon="-0.59085">
        <ele>40.51</ele>
        <time>2014-11-09T10:51:09Z</time>
      </trkpt>
      <trkpt lat="47.55825" lon="-0.59058">
        <ele>40.99</ele>
        <time>2014-11-09T10:51:25Z</time>
      </trkpt>
      <trkpt lat="47.55768" lon="-0.5904">
        <ele>39.07</ele>
        <time>2014-11-09T10:51:34Z</time>
      </trkpt>
      <trkpt lat="47.55693" lon="-0.59002">
        <ele>39.07</ele>
        <time>2014-11-09T10:51:47Z</time>
      </trkpt>
      <trkpt lat="47.5566" lon="-0.58992">
        <ele>38.11</ele>
        <time>2014-11-09T10:51:53Z</time>
      </trkpt>
      <trkpt lat="47.55638" lon="-0.58982">
        <ele>37.63</ele>
        <time>2014-11-09T10:51:57Z</time>
      </trkpt>
      <trkpt lat="47.5561" lon="-0.59001">
        <ele>37.15</ele>
        <time>2014-11-09T10:52:04Z</time>
      </trkpt>
      <trkpt lat="47.55563" lon="-0.59055">
        <ele>37.15</ele>
        <time>2014-11-09T10:52:15Z</time>
      </trkpt>
      <trkpt lat="47.55546" lon="-0.59076">
        <ele>37.63</ele>
        <time>2014-11-09T10:52:19Z</time>
      </trkpt>
      <trkpt lat="47.55529" lon="-0.59094">
        <ele>36.67</ele>
        <time>2014-11-09T10:52:23Z</time>
      </trkpt>
      <trkpt lat="47.55507" lon="-0.59108">
        <ele>36.67</ele>
        <time>2014-11-09T10:52:27Z</time>
      </trkpt>
      <trkpt lat="47.55424" lon="-0.59138">
        <ele>36.19</ele>
        <time>2014-11-09T10:52:43Z</time>
      </trkpt>
      <trkpt lat="47.55359" lon="-0.59166">
        <ele>35.71</ele>
        <time>2014-11-09T10:52:55Z</time>
      </trkpt>
      <trkpt lat="47.55267" lon="-0.59213">
        <ele>35.71</ele>
        <time>2014-11-09T10:53:11Z</time>
      </trkpt>
      <trkpt lat="47.55194" lon="-0.5925">
        <ele>35.23</ele>
        <time>2014-11-09T10:53:23Z</time>
      </trkpt>
      <trkpt lat="47.55157" lon="-0.59271">
        <ele>34.74</ele>
        <time>2014-11-09T10:53:29Z</time>
      </trkpt>
      <trkpt lat="47.55084" lon="-0.59312">
        <ele>33.78</ele>
        <time>2014-11-09T10:53:41Z</time>
      </trkpt>
      <trkpt lat="47.5502" lon="-0.59344">
        <ele>32.34</ele>
        <time>2014-11-09T10:53:51Z</time>
      </trkpt>
      <trkpt lat="47.54932" lon="-0.59391">
        <ele>30.9</ele>
        <time>2014-11-09T10:54:05Z</time>
      </trkpt>
      <trkpt lat="47.549" lon="-0.59411">
        <ele>30.42</ele>
        <time>2014-11-09T10:54:11Z</time>
      </trkpt>
      <trkpt lat="47.54886" lon="-0.59429">
        <ele>30.42</ele>
        <time>2014-11-09T10:54:15Z</time>
      </trkpt>
      <trkpt lat="47.54836" lon="-0.59459">
        <ele>29.46</ele>
        <time>2014-11-09T10:54:29Z</time>
      </trkpt>
      <trkpt lat="47.54798" lon="-0.59482">
        <ele>29.94</ele>
        <time>2014-11-09T10:54:42Z</time>
      </trkpt>
      <trkpt lat="47.54747" lon="-0.59513">
        <ele>29.46</ele>
        <time>2014-11-09T10:54:57Z</time>
      </trkpt>
      <trkpt lat="47.5468" lon="-0.59557">
        <ele>29.94</ele>
        <time>2014-11-09T10:55:14Z</time>
      </trkpt>
      <trkpt lat="47.54635" lon="-0.59603">
        <ele>29.46</ele>
        <time>2014-11-09T10:55:26Z</time>
      </trkpt>
      <trkpt lat="47.54626" lon="-0.59642">
        <ele>29.46</ele>
        <time>2014-11-09T10:55:33Z</time>
      </trkpt>
      <trkpt lat="47.54644" lon="-0.59726">
        <ele>29.94</ele>
        <time>2014-11-09T10:55:47Z</time>
      </trkpt>
      <trkpt lat="47.54633" lon="-0.59772">
        <ele>29.94</ele>
        <time>2014-11-09T10:55:54Z</time>
      </trkpt>
      <trkpt lat="47.54603" lon="-0.59839">
        <ele>30.42</ele>
        <time>2014-11-09T10:56:04Z</time>
      </trkpt>
      <trkpt lat="47.54592" lon="-0.59893">
        <ele>30.42</ele>
        <time>2014-11-09T10:56:11Z</time>
      </trkpt>
      <trkpt lat="47.54601" lon="-0.60013">
        <ele>30.9</ele>
        <time>2014-11-09T10:56:27Z</time>
      </trkpt>
      <trkpt lat="47.54626" lon="-0.60121">
        <ele>30.42</ele>
        <time>2014-11-09T10:56:42Z</time>
      </trkpt>
      <trkpt lat="47.54633" lon="-0.60149">
        <ele>30.42</ele>
        <time>2014-11-09T10:56:46Z</time>
      </trkpt>
      <trkpt lat="47.54645" lon="-0.60177">
        <ele>29.46</ele>
        <time>2014-11-09T10:56:50Z</time>
      </trkpt>
      <trkpt lat="47.54651" lon="-0.60192">
        <ele>28.5</ele>
        <time>2014-11-09T10:56:52Z</time>
      </trkpt>
      <trkpt lat="47.54642" lon="-0.60243">
        <ele>26.57</ele>
        <time>2014-11-09T10:56:59Z</time>
      </trkpt>
      <trkpt lat="47.54582" lon="-0.60311">
        <ele>27.05</ele>
        <time>2014-11-09T10:57:12Z</time>
      </trkpt>
      <trkpt lat="47.54536" lon="-0.60337">
        <ele>28.02</ele>
        <time>2014-11-09T10:57:22Z</time>
      </trkpt>
      <trkpt lat="47.54519" lon="-0.60344">
        <ele>28.02</ele>
        <time>2014-11-09T10:57:26Z</time>
      </trkpt>
      <trkpt lat="47.54489" lon="-0.60358">
        <ele>28.02</ele>
        <time>2014-11-09T10:57:33Z</time>
      </trkpt>
      <trkpt lat="47.5441" lon="-0.60429">
        <ele>26.57</ele>
        <time>2014-11-09T10:57:50Z</time>
      </trkpt>
      <trkpt lat="47.54347" lon="-0.60507">
        <ele>26.09</ele>
        <time>2014-11-09T10:58:05Z</time>
      </trkpt>
      <trkpt lat="47.54341" lon="-0.60518">
        <ele>25.13</ele>
        <time>2014-11-09T10:58:07Z</time>
      </trkpt>
      <trkpt lat="47.54336" lon="-0.60529">
        <ele>25.13</ele>
        <time>2014-11-09T10:58:09Z</time>
      </trkpt>
      <trkpt lat="47.54333" lon="-0.60535">
        <ele>28.5</ele>
        <time>2014-11-09T10:58:10Z</time>
      </trkpt>
      <trkpt lat="47.54328" lon="-0.60544">
        <ele>26.57</ele>
        <time>2014-11-09T10:58:12Z</time>
      </trkpt>
      <trkpt lat="47.54301" lon="-0.60592">
        <ele>27.53</ele>
        <time>2014-11-09T10:58:22Z</time>
      </trkpt>
      <trkpt lat="47.54293" lon="-0.60607">
        <ele>23.21</ele>
        <time>2014-11-09T10:58:25Z</time>
      </trkpt>
      <trkpt lat="47.5429" lon="-0.60613">
        <ele>30.9</ele>
        <time>2014-11-09T10:58:26Z</time>
      </trkpt>
      <trkpt lat="47.54287" lon="-0.60619">
        <ele>26.57</ele>
        <time>2014-11-09T10:58:27Z</time>
      </trkpt>
      <trkpt lat="47.54285" lon="-0.60624">
        <ele>23.69</ele>
        <time>2014-11-09T10:58:28Z</time>
      </trkpt>
      <trkpt lat="47.54282" lon="-0.6063">
        <ele>29.94</ele>
        <time>2014-11-09T10:58:29Z</time>
      </trkpt>
      <trkpt lat="47.54256" lon="-0.60664">
        <ele>27.05</ele>
        <time>2014-11-09T10:58:36Z</time>
      </trkpt>
      <trkpt lat="47.54216" lon="-0.60711">
        <ele>25.13</ele>
        <time>2014-11-09T10:58:45Z</time>
      </trkpt>
      <trkpt lat="47.54202" lon="-0.60728">
        <ele>24.65</ele>
        <time>2014-11-09T10:58:48Z</time>
      </trkpt>
      <trkpt lat="47.54189" lon="-0.60758">
        <ele>24.65</ele>
        <time>2014-11-09T10:58:52Z</time>
      </trkpt>
      <trkpt lat="47.54175" lon="-0.60794">
        <ele>24.65</ele>
        <time>2014-11-09T10:58:57Z</time>
      </trkpt>
      <trkpt lat="47.54162" lon="-0.6081">
        <ele>24.17</ele>
        <time>2014-11-09T10:59:00Z</time>
      </trkpt>
      <trkpt lat="47.54132" lon="-0.60834">
        <ele>24.65</ele>
        <time>2014-11-09T10:59:06Z</time>
      </trkpt>
      <trkpt lat="47.54111" lon="-0.60861">
        <ele>23.69</ele>
        <time>2014-11-09T10:59:14Z</time>
      </trkpt>
      <trkpt lat="47.54111" lon="-0.60865">
        <ele>24.17</ele>
        <time>2014-11-09T10:59:15Z</time>
      </trkpt>
      <trkpt lat="47.54129" lon="-0.60927">
        <ele>23.69</ele>
        <time>2014-11-09T10:59:28Z</time>
      </trkpt>
      <trkpt lat="47.5413" lon="-0.60946">
        <ele>23.21</ele>
        <time>2014-11-09T10:59:33Z</time>
      </trkpt>
      <trkpt lat="47.54121" lon="-0.60958">
        <ele>23.69</ele>
        <time>2014-11-09T10:59:37Z</time>
      </trkpt>
      <trkpt lat="47.54061" lon="-0.61003">
        <ele>24.17</ele>
        <time>2014-11-09T10:59:52Z</time>
      </trkpt>
      <trkpt lat="47.54046" lon="-0.61021">
        <ele>23.69</ele>
        <time>2014-11-09T10:59:56Z</time>
      </trkpt>
      <trkpt lat="47.5402" lon="-0.61082">
        <ele>24.17</ele>
        <time>2014-11-09T11:00:05Z</time>
      </trkpt>
      <trkpt lat="47.54016" lon="-0.61108">
        <ele>24.17</ele>
        <time>2014-11-09T11:00:08Z</time>
      </trkpt>
      <trkpt lat="47.54009" lon="-0.61282">
        <ele>25.61</ele>
        <time>2014-11-09T11:00:28Z</time>
      </trkpt>
      <trkpt lat="47.54003" lon="-0.61441">
        <ele>26.57</ele>
        <time>2014-11-09T11:00:48Z</time>
      </trkpt>
      <trkpt lat="47.54001" lon="-0.61495">
        <ele>26.57</ele>
        <time>2014-11-09T11:00:54Z</time>
      </trkpt>
      <trkpt lat="47.53991" lon="-0.61548">
        <ele>25.61</ele>
        <time>2014-11-09T11:01:00Z</time>
      </trkpt>
      <trkpt lat="47.53974" lon="-0.61585">
        <ele>24.65</ele>
        <time>2014-11-09T11:01:05Z</time>
      </trkpt>
      <trkpt lat="47.53959" lon="-0.61602">
        <ele>25.13</ele>
        <time>2014-11-09T11:01:08Z</time>
      </trkpt>
      <trkpt lat="47.53877" lon="-0.61638">
        <ele>24.65</ele>
        <time>2014-11-09T11:01:23Z</time>
      </trkpt>
      <trkpt lat="47.53832" lon="-0.61657">
        <ele>25.61</ele>
        <time>2014-11-09T11:01:34Z</time>
      </trkpt>
      <trkpt lat="47.53827" lon="-0.6169">
        <ele>28.98</ele>
        <time>2014-11-09T11:01:41Z</time>
      </trkpt>
      <trkpt lat="47.53828" lon="-0.61694">
        <ele>28.98</ele>
        <time>2014-11-09T11:01:42Z</time>
      </trkpt>
      <trkpt lat="47.53829" lon="-0.61704">
        <ele>30.42</ele>
        <time>2014-11-09T11:01:45Z</time>
      </trkpt>
      <trkpt lat="47.53834" lon="-0.61735">
        <ele>33.3</ele>
        <time>2014-11-09T11:01:53Z</time>
      </trkpt>
      <trkpt lat="47.53837" lon="-0.61748">
        <ele>35.23</ele>
        <time>2014-11-09T11:01:58Z</time>
      </trkpt>
      <trkpt lat="47.53846" lon="-0.61751">
        <ele>36.19</ele>
        <time>2014-11-09T11:02:03Z</time>
      </trkpt>
      <trkpt lat="47.53865" lon="-0.61749">
        <ele>37.15</ele>
        <time>2014-11-09T11:02:13Z</time>
      </trkpt>
      <trkpt lat="47.53891" lon="-0.61741">
        <ele>39.55</ele>
        <time>2014-11-09T11:02:27Z</time>
      </trkpt>
      <trkpt lat="47.5392" lon="-0.61739">
        <ele>41.47</ele>
        <time>2014-11-09T11:02:41Z</time>
      </trkpt>
      <trkpt lat="47.53933" lon="-0.61772">
        <ele>42.44</ele>
        <time>2014-11-09T11:02:54Z</time>
      </trkpt>
      <trkpt lat="47.53934" lon="-0.61774">
        <ele>46.76</ele>
        <time>2014-11-09T11:02:55Z</time>
      </trkpt>
      <trkpt lat="47.53934" lon="-0.61776">
        <ele>44.84</ele>
        <time>2014-11-09T11:02:56Z</time>
      </trkpt>
      <trkpt lat="47.53936" lon="-0.61813">
        <ele>46.28</ele>
        <time>2014-11-09T11:03:08Z</time>
      </trkpt>
      <trkpt lat="47.53925" lon="-0.61821">
        <ele>47.24</ele>
        <time>2014-11-09T11:03:13Z</time>
      </trkpt>
      <trkpt lat="47.53902" lon="-0.61825">
        <ele>45.8</ele>
        <time>2014-11-09T11:03:19Z</time>
      </trkpt>
      <trkpt lat="47.5388" lon="-0.61842">
        <ele>45.32</ele>
        <time>2014-11-09T11:03:24Z</time>
      </trkpt>
      <trkpt lat="47.53873" lon="-0.61854">
        <ele>45.32</ele>
        <time>2014-11-09T11:03:26Z</time>
      </trkpt>
      <trkpt lat="47.53845" lon="-0.6193">
        <ele>47.24</ele>
        <time>2014-11-09T11:03:40Z</time>
      </trkpt>
      <trkpt lat="47.53833" lon="-0.61967">
        <ele>48.68</ele>
        <time>2014-11-09T11:03:49Z</time>
      </trkpt>
      <trkpt lat="47.53854" lon="-0.61996">
        <ele>49.16</ele>
        <time>2014-11-09T11:04:00Z</time>
      </trkpt>
      <trkpt lat="47.53865" lon="-0.61999">
        <ele>49.16</ele>
        <time>2014-11-09T11:04:05Z</time>
      </trkpt>
      <trkpt lat="47.53881" lon="-0.61986">
        <ele>48.68</ele>
        <time>2014-11-09T11:04:17Z</time>
      </trkpt>
      <trkpt lat="47.53884" lon="-0.61988">
        <ele>43.88</ele>
        <time>2014-11-09T11:04:28Z</time>
      </trkpt>
      <trkpt lat="47.53884" lon="-0.61988">
        <ele>52.53</ele>
        <time>2014-11-09T11:04:29Z</time>
      </trkpt>
      <trkpt lat="47.53884" lon="-0.61988">
        <ele>48.2</ele>
        <time>2014-11-09T11:04:30Z</time>
      </trkpt>
      <trkpt lat="47.53884" lon="-0.61988">
        <ele>48.2</ele>
        <time>2014-11-09T11:05:01Z</time>
      </trkpt>
    </trkseg>
  </trk>
</gpx>